<?xml version='1.0' encoding='UTF-8'?><gpx version="1.1" creator="JPX - https://github.com/jenetics/jpx" xmlns="http://www.topografix.com/GPX/1/1"><trk><trkseg><trkpt lat="45.7595333" lon="8.968085"><ele>385.00000000000006</ele><time>2026-04-08T14:37:02.129Z</time></trkpt><trkpt lat="45.759595" lon="8.9680667"><ele>385.0</ele><time>2026-04-08T14:37:05.128Z</time></trkpt><trkpt lat="45.7596583" lon="8.96806"><ele>385.0</ele><time>2026-04-08T14:37:07.128Z</time></trkpt><trkpt lat="45.7597417" lon="8.96807"><ele>385.0</ele><time>2026-04-08T14:37:10.128Z</time></trkpt><trkpt lat="45.75978" lon="8.9681633"><ele>385.00000000000006</ele><time>2026-04-08T14:37:12.128Z</time></trkpt><trkpt lat="45.7598033" lon="8.9682833"><ele>385.0</ele><time>2026-04-08T14:37:14.129Z</time></trkpt><trkpt lat="45.7598233" lon="8.968425"><ele>384.4</ele><time>2026-04-08T14:37:16.13Z</time></trkpt><trkpt lat="45.7598517" lon="8.9685717"><ele>383.8</ele><time>2026-04-08T14:37:18.128Z</time></trkpt><trkpt lat="45.759885" lon="8.9687183"><ele>383.20000000000005</ele><time>2026-04-08T14:37:20.128Z</time></trkpt><trkpt lat="45.7599267" lon="8.9688617"><ele>382.6</ele><time>2026-04-08T14:37:22.129Z</time></trkpt><trkpt lat="45.75996" lon="8.9690133"><ele>382.0</ele><time>2026-04-08T14:37:24.128Z</time></trkpt><trkpt lat="45.759995" lon="8.969175"><ele>381.6</ele><time>2026-04-08T14:37:26.128Z</time></trkpt><trkpt lat="45.7600117" lon="8.9693167"><ele>381.20000000000005</ele><time>2026-04-08T14:37:28.128Z</time></trkpt><trkpt lat="45.7599833" lon="8.969435"><ele>380.8</ele><time>2026-04-08T14:37:30.128Z</time></trkpt><trkpt lat="45.7599033" lon="8.9695117"><ele>380.4</ele><time>2026-04-08T14:37:32.128Z</time></trkpt><trkpt lat="45.7598033" lon="8.969555"><ele>380.0</ele><time>2026-04-08T14:37:34.129Z</time></trkpt><trkpt lat="45.7596933" lon="8.9695783"><ele>380.0</ele><time>2026-04-08T14:37:36.128Z</time></trkpt><trkpt lat="45.759625" lon="8.9695833"><ele>380.0</ele><time>2026-04-08T14:37:37.128Z</time></trkpt><trkpt lat="45.7595567" lon="8.9695883"><ele>380.0</ele><time>2026-04-08T14:37:38.129Z</time></trkpt><trkpt lat="45.7594917" lon="8.9695917"><ele>380.0</ele><time>2026-04-08T14:37:39.128Z</time></trkpt><trkpt lat="45.759425" lon="8.9695933"><ele>380.0</ele><time>2026-04-08T14:37:40.128Z</time></trkpt><trkpt lat="45.75936" lon="8.9695917"><ele>380.0</ele><time>2026-04-08T14:37:41.128Z</time></trkpt><trkpt lat="45.75927" lon="8.96958"><ele>380.0</ele><time>2026-04-08T14:37:43.128Z</time></trkpt><trkpt lat="45.7592317" lon="8.9696583"><ele>379.5</ele><time>2026-04-08T14:37:46.128Z</time></trkpt><trkpt lat="45.7592733" lon="8.96978"><ele>379.0</ele><time>2026-04-08T14:37:55.128Z</time></trkpt><trkpt lat="45.7592917" lon="8.9698667"><ele>378.5</ele><time>2026-04-08T14:37:57.127Z</time></trkpt><trkpt lat="45.7592533" lon="8.9699617"><ele>378.0</ele><time>2026-04-08T14:37:59.127Z</time></trkpt><trkpt lat="45.7591883" lon="8.970045"><ele>377.5</ele><time>2026-04-08T14:38:01.127Z</time></trkpt><trkpt lat="45.7591417" lon="8.9701483"><ele>377.0</ele><time>2026-04-08T14:38:03.127Z</time></trkpt><trkpt lat="45.7590817" lon="8.9702333"><ele>376.20000000000005</ele><time>2026-04-08T14:38:05.127Z</time></trkpt><trkpt lat="45.7589917" lon="8.9702883"><ele>375.4</ele><time>2026-04-08T14:38:07.128Z</time></trkpt><trkpt lat="45.7588867" lon="8.9702983"><ele>374.6</ele><time>2026-04-08T14:38:09.127Z</time></trkpt><trkpt lat="45.758785" lon="8.970325"><ele>373.79999999999995</ele><time>2026-04-08T14:38:11.129Z</time></trkpt><trkpt lat="45.758705" lon="8.9703217"><ele>373.0</ele><time>2026-04-08T14:38:13.128Z</time></trkpt><trkpt lat="45.758615" lon="8.9703317"><ele>373.0</ele><time>2026-04-08T14:38:15.128Z</time></trkpt><trkpt lat="45.7585167" lon="8.97035"><ele>373.0</ele><time>2026-04-08T14:38:17.13Z</time></trkpt><trkpt lat="45.75843" lon="8.9703617"><ele>373.0</ele><time>2026-04-08T14:38:19.129Z</time></trkpt><trkpt lat="45.7583517" lon="8.9703867"><ele>373.0</ele><time>2026-04-08T14:38:21.129Z</time></trkpt><trkpt lat="45.758285" lon="8.9704017"><ele>373.0</ele><time>2026-04-08T14:38:23.13Z</time></trkpt><trkpt lat="45.75822" lon="8.9704217"><ele>373.0</ele><time>2026-04-08T14:38:25.129Z</time></trkpt><trkpt lat="45.7581483" lon="8.97044"><ele>373.0</ele><time>2026-04-08T14:38:27.13Z</time></trkpt><trkpt lat="45.75808" lon="8.9704583"><ele>373.0</ele><time>2026-04-08T14:38:29.129Z</time></trkpt><trkpt lat="45.757995" lon="8.9704633"><ele>373.0</ele><time>2026-04-08T14:38:32.129Z</time></trkpt><trkpt lat="45.75792" lon="8.97052"><ele>373.0</ele><time>2026-04-08T14:38:35.128Z</time></trkpt><trkpt lat="45.757815" lon="8.9704933"><ele>373.0</ele><time>2026-04-08T14:38:43.129Z</time></trkpt><trkpt lat="45.757715" lon="8.9704783"><ele>373.0</ele><time>2026-04-08T14:38:46.129Z</time></trkpt><trkpt lat="45.757595" lon="8.970455"><ele>372.16666666666663</ele><time>2026-04-08T14:38:48.129Z</time></trkpt><trkpt lat="45.7575283" lon="8.9704317"><ele>371.3333333333333</ele><time>2026-04-08T14:38:49.129Z</time></trkpt><trkpt lat="45.75746" lon="8.9704433"><ele>370.5</ele><time>2026-04-08T14:38:50.13Z</time></trkpt><trkpt lat="45.7573667" lon="8.9704683"><ele>369.6666666666667</ele><time>2026-04-08T14:38:52.129Z</time></trkpt><trkpt lat="45.7573167" lon="8.9705333"><ele>368.83333333333337</ele><time>2026-04-08T14:38:54.132Z</time></trkpt><trkpt lat="45.7572883" lon="8.9706383"><ele>368.0</ele><time>2026-04-08T14:38:56.129Z</time></trkpt><trkpt lat="45.75723" lon="8.9707317"><ele>368.0</ele><time>2026-04-08T14:38:58.128Z</time></trkpt><trkpt lat="45.7571517" lon="8.9707317"><ele>368.0</ele><time>2026-04-08T14:39:00.129Z</time></trkpt><trkpt lat="45.7570767" lon="8.970705"><ele>368.0</ele><time>2026-04-08T14:39:02.129Z</time></trkpt><trkpt lat="45.75699" lon="8.9706817"><ele>368.0</ele><time>2026-04-08T14:39:04.129Z</time></trkpt><trkpt lat="45.7569033" lon="8.9706683"><ele>368.0</ele><time>2026-04-08T14:39:06.129Z</time></trkpt><trkpt lat="45.7568183" lon="8.97065"><ele>368.0</ele><time>2026-04-08T14:39:08.132Z</time></trkpt><trkpt lat="45.7567267" lon="8.9706333"><ele>367.1666666666667</ele><time>2026-04-08T14:39:10.128Z</time></trkpt><trkpt lat="45.7566417" lon="8.9706217"><ele>366.33333333333337</ele><time>2026-04-08T14:39:12.128Z</time></trkpt><trkpt lat="45.7565533" lon="8.97061"><ele>365.5</ele><time>2026-04-08T14:39:14.129Z</time></trkpt><trkpt lat="45.7564633" lon="8.9706267"><ele>364.6666666666667</ele><time>2026-04-08T14:39:16.129Z</time></trkpt><trkpt lat="45.7563717" lon="8.9706433"><ele>363.8333333333333</ele><time>2026-04-08T14:39:18.129Z</time></trkpt><trkpt lat="45.756285" lon="8.97066"><ele>363.0</ele><time>2026-04-08T14:39:20.129Z</time></trkpt><trkpt lat="45.7562" lon="8.9706783"><ele>363.0</ele><time>2026-04-08T14:39:22.128Z</time></trkpt><trkpt lat="45.7561233" lon="8.9707083"><ele>363.0</ele><time>2026-04-08T14:39:24.128Z</time></trkpt><trkpt lat="45.7560467" lon="8.9707583"><ele>363.0</ele><time>2026-04-08T14:39:26.133Z</time></trkpt><trkpt lat="45.7559733" lon="8.9707967"><ele>363.0</ele><time>2026-04-08T14:39:28.127Z</time></trkpt><trkpt lat="45.7559083" lon="8.9708533"><ele>363.0</ele><time>2026-04-08T14:39:30.13Z</time></trkpt><trkpt lat="45.755875" lon="8.9709567"><ele>363.0</ele><time>2026-04-08T14:39:32.129Z</time></trkpt><trkpt lat="45.7558583" lon="8.9710733"><ele>363.1666666666667</ele><time>2026-04-08T14:39:34.128Z</time></trkpt><trkpt lat="45.7558133" lon="8.9711683"><ele>363.3333333333333</ele><time>2026-04-08T14:39:36.128Z</time></trkpt><trkpt lat="45.7557333" lon="8.9711717"><ele>363.5</ele><time>2026-04-08T14:39:38.129Z</time></trkpt><trkpt lat="45.7556533" lon="8.9711717"><ele>363.66666666666663</ele><time>2026-04-08T14:39:40.129Z</time></trkpt><trkpt lat="45.755565" lon="8.9712033"><ele>363.8333333333333</ele><time>2026-04-08T14:39:42.131Z</time></trkpt><trkpt lat="45.755475" lon="8.97121"><ele>364.0</ele><time>2026-04-08T14:39:44.13Z</time></trkpt><trkpt lat="45.7553783" lon="8.9712"><ele>364.0</ele><time>2026-04-08T14:39:46.129Z</time></trkpt><trkpt lat="45.7552917" lon="8.971185"><ele>364.0</ele><time>2026-04-08T14:39:48.129Z</time></trkpt><trkpt lat="45.75522" lon="8.9711367"><ele>364.0</ele><time>2026-04-08T14:39:50.13Z</time></trkpt><trkpt lat="45.755165" lon="8.971055"><ele>364.0</ele><time>2026-04-08T14:39:52.129Z</time></trkpt><trkpt lat="45.7551167" lon="8.97096"><ele>364.0</ele><time>2026-04-08T14:39:54.13Z</time></trkpt><trkpt lat="45.7550683" lon="8.970875"><ele>364.0</ele><time>2026-04-08T14:39:56.13Z</time></trkpt><trkpt lat="45.7550233" lon="8.9707983"><ele>364.14285714285717</ele><time>2026-04-08T14:39:58.129Z</time></trkpt><trkpt lat="45.7549933" lon="8.9707183"><ele>364.2857142857143</ele><time>2026-04-08T14:40:00.129Z</time></trkpt><trkpt lat="45.754945" lon="8.9706333"><ele>364.42857142857144</ele><time>2026-04-08T14:40:02.129Z</time></trkpt><trkpt lat="45.7549083" lon="8.970545"><ele>364.57142857142856</ele><time>2026-04-08T14:40:04.13Z</time></trkpt><trkpt lat="45.754865" lon="8.9704567"><ele>364.7142857142857</ele><time>2026-04-08T14:40:06.132Z</time></trkpt><trkpt lat="45.7548183" lon="8.9703667"><ele>364.8571428571429</ele><time>2026-04-08T14:40:08.128Z</time></trkpt><trkpt lat="45.7547717" lon="8.97028"><ele>365.0</ele><time>2026-04-08T14:40:10.13Z</time></trkpt><trkpt lat="45.7547317" lon="8.9701917"><ele>365.00000000000006</ele><time>2026-04-08T14:40:12.128Z</time></trkpt><trkpt lat="45.7546933" lon="8.9701033"><ele>365.0</ele><time>2026-04-08T14:40:14.128Z</time></trkpt><trkpt lat="45.75465" lon="8.9700183"><ele>365.0</ele><time>2026-04-08T14:40:16.128Z</time></trkpt><trkpt lat="45.75461" lon="8.9699217"><ele>365.0</ele><time>2026-04-08T14:40:18.129Z</time></trkpt><trkpt lat="45.7545783" lon="8.9698233"><ele>365.0</ele><time>2026-04-08T14:40:20.129Z</time></trkpt><trkpt lat="45.7545517" lon="8.9697283"><ele>365.00000000000006</ele><time>2026-04-08T14:40:22.129Z</time></trkpt><trkpt lat="45.754525" lon="8.9696383"><ele>365.0</ele><time>2026-04-08T14:40:24.13Z</time></trkpt><trkpt lat="45.7544967" lon="8.969535"><ele>364.6666666666667</ele><time>2026-04-08T14:40:27.13Z</time></trkpt><trkpt lat="45.7544733" lon="8.9694267"><ele>364.33333333333337</ele><time>2026-04-08T14:41:15.128Z</time></trkpt><trkpt lat="45.75445" lon="8.9693117"><ele>364.0</ele><time>2026-04-08T14:41:21.129Z</time></trkpt><trkpt lat="45.7544317" lon="8.969195"><ele>363.6666666666667</ele><time>2026-04-08T14:41:25.128Z</time></trkpt><trkpt lat="45.7544217" lon="8.9690983"><ele>363.3333333333333</ele><time>2026-04-08T14:41:28.129Z</time></trkpt><trkpt lat="45.7544033" lon="8.9689967"><ele>363.0</ele><time>2026-04-08T14:41:31.128Z</time></trkpt><trkpt lat="45.7543717" lon="8.9688933"><ele>363.5</ele><time>2026-04-08T14:41:34.128Z</time></trkpt><trkpt lat="45.754345" lon="8.9687833"><ele>364.0</ele><time>2026-04-08T14:41:37.128Z</time></trkpt><trkpt lat="45.754315" lon="8.9686633"><ele>364.5</ele><time>2026-04-08T14:41:40.128Z</time></trkpt><trkpt lat="45.754295" lon="8.96855"><ele>365.0</ele><time>2026-04-08T14:41:43.129Z</time></trkpt><trkpt lat="45.75427" lon="8.968425"><ele>365.5</ele><time>2026-04-08T14:41:46.127Z</time></trkpt><trkpt lat="45.7542483" lon="8.9683333"><ele>366.0</ele><time>2026-04-08T14:41:48.129Z</time></trkpt><trkpt lat="45.7542267" lon="8.9682417"><ele>366.5</ele><time>2026-04-08T14:41:50.128Z</time></trkpt><trkpt lat="45.7542" lon="8.9681367"><ele>367.0</ele><time>2026-04-08T14:41:52.128Z</time></trkpt><trkpt lat="45.754175" lon="8.968035"><ele>367.5</ele><time>2026-04-08T14:41:54.129Z</time></trkpt><trkpt lat="45.75414" lon="8.9679317"><ele>368.0</ele><time>2026-04-08T14:41:56.129Z</time></trkpt><trkpt lat="45.754115" lon="8.9678317"><ele>368.5</ele><time>2026-04-08T14:41:58.129Z</time></trkpt><trkpt lat="45.7540867" lon="8.96772"><ele>369.0</ele><time>2026-04-08T14:42:00.129Z</time></trkpt><trkpt lat="45.7540733" lon="8.9676217"><ele>369.4</ele><time>2026-04-08T14:42:02.128Z</time></trkpt><trkpt lat="45.7540867" lon="8.9675233"><ele>369.79999999999995</ele><time>2026-04-08T14:42:04.128Z</time></trkpt><trkpt lat="45.7541167" lon="8.9673967"><ele>370.20000000000005</ele><time>2026-04-08T14:42:06.128Z</time></trkpt><trkpt lat="45.75416" lon="8.9672683"><ele>370.6</ele><time>2026-04-08T14:42:08.128Z</time></trkpt><trkpt lat="45.7541967" lon="8.9671333"><ele>371.0</ele><time>2026-04-08T14:42:10.128Z</time></trkpt><trkpt lat="45.7542317" lon="8.9670033"><ele>371.0</ele><time>2026-04-08T14:42:12.128Z</time></trkpt><trkpt lat="45.7542817" lon="8.966915"><ele>371.0</ele><time>2026-04-08T14:42:14.129Z</time></trkpt><trkpt lat="45.7543283" lon="8.9668083"><ele>371.0</ele><time>2026-04-08T14:42:16.13Z</time></trkpt><trkpt lat="45.7543417" lon="8.9666883"><ele>371.0</ele><time>2026-04-08T14:42:18.128Z</time></trkpt><trkpt lat="45.7543417" lon="8.9665967"><ele>371.0</ele><time>2026-04-08T14:42:20.128Z</time></trkpt><trkpt lat="45.7543333" lon="8.9664933"><ele>371.0</ele><time>2026-04-08T14:42:23.128Z</time></trkpt><trkpt lat="45.7543267" lon="8.9663883"><ele>371.7142857142857</ele><time>2026-04-08T14:42:26.13Z</time></trkpt><trkpt lat="45.7542983" lon="8.966285"><ele>372.42857142857144</ele><time>2026-04-08T14:42:29.128Z</time></trkpt><trkpt lat="45.7542833" lon="8.9661783"><ele>373.1428571428571</ele><time>2026-04-08T14:42:32.128Z</time></trkpt><trkpt lat="45.7542633" lon="8.9660733"><ele>373.8571428571429</ele><time>2026-04-08T14:42:35.129Z</time></trkpt><trkpt lat="45.7542267" lon="8.96598"><ele>374.57142857142856</ele><time>2026-04-08T14:42:37.128Z</time></trkpt><trkpt lat="45.75421" lon="8.965885"><ele>375.2857142857143</ele><time>2026-04-08T14:42:40.128Z</time></trkpt><trkpt lat="45.7541717" lon="8.9657917"><ele>376.0</ele><time>2026-04-08T14:42:43.128Z</time></trkpt><trkpt lat="45.7541517" lon="8.9657033"><ele>376.7142857142857</ele><time>2026-04-08T14:42:47.128Z</time></trkpt><trkpt lat="45.75415" lon="8.9656033"><ele>377.42857142857144</ele><time>2026-04-08T14:42:53.128Z</time></trkpt><trkpt lat="45.7541217" lon="8.9655067"><ele>378.1428571428571</ele><time>2026-04-08T14:42:57.128Z</time></trkpt><trkpt lat="45.754115" lon="8.9654"><ele>378.8571428571429</ele><time>2026-04-08T14:43:03.128Z</time></trkpt><trkpt lat="45.7541167" lon="8.9653"><ele>379.5714285714286</ele><time>2026-04-08T14:43:09.129Z</time></trkpt><trkpt lat="45.75407" lon="8.9652217"><ele>380.2857142857143</ele><time>2026-04-08T14:43:15.128Z</time></trkpt><trkpt lat="45.754055" lon="8.9651267"><ele>381.0</ele><time>2026-04-08T14:43:21.13Z</time></trkpt><trkpt lat="45.7540417" lon="8.9650167"><ele>382.0</ele><time>2026-04-08T14:43:27.13Z</time></trkpt><trkpt lat="45.7540267" lon="8.9649117"><ele>383.0</ele><time>2026-04-08T14:43:32.128Z</time></trkpt><trkpt lat="45.7540183" lon="8.9647917"><ele>384.0</ele><time>2026-04-08T14:43:39.128Z</time></trkpt><trkpt lat="45.7540017" lon="8.9646983"><ele>385.0</ele><time>2026-04-08T14:43:44.129Z</time></trkpt><trkpt lat="45.7539917" lon="8.9646017"><ele>386.0</ele><time>2026-04-08T14:43:52.128Z</time></trkpt><trkpt lat="45.7539483" lon="8.9645283"><ele>387.0</ele><time>2026-04-08T14:43:57.128Z</time></trkpt><trkpt lat="45.7538983" lon="8.96445"><ele>388.0</ele><time>2026-04-08T14:44:01.127Z</time></trkpt><trkpt lat="45.7538433" lon="8.96439"><ele>388.0</ele><time>2026-04-08T14:44:05.128Z</time></trkpt><trkpt lat="45.7538" lon="8.9643117"><ele>388.0</ele><time>2026-04-08T14:44:10.128Z</time></trkpt><trkpt lat="45.7537967" lon="8.9642117"><ele>388.0</ele><time>2026-04-08T14:44:14.128Z</time></trkpt><trkpt lat="45.7537783" lon="8.9641233"><ele>388.0</ele><time>2026-04-08T14:44:17.13Z</time></trkpt><trkpt lat="45.7537533" lon="8.96403"><ele>388.0</ele><time>2026-04-08T14:44:20.129Z</time></trkpt><trkpt lat="45.753715" lon="8.9639383"><ele>388.0</ele><time>2026-04-08T14:44:24.13Z</time></trkpt><trkpt lat="45.7536933" lon="8.963835"><ele>388.0</ele><time>2026-04-08T14:44:27.13Z</time></trkpt><trkpt lat="45.7536717" lon="8.96374"><ele>388.7142857142857</ele><time>2026-04-08T14:44:30.128Z</time></trkpt><trkpt lat="45.7536483" lon="8.96363"><ele>389.42857142857144</ele><time>2026-04-08T14:44:34.127Z</time></trkpt><trkpt lat="45.7536483" lon="8.9635267"><ele>390.14285714285717</ele><time>2026-04-08T14:44:38.128Z</time></trkpt><trkpt lat="45.753615" lon="8.963435"><ele>390.8571428571429</ele><time>2026-04-08T14:44:41.128Z</time></trkpt><trkpt lat="45.7535833" lon="8.9633433"><ele>391.57142857142856</ele><time>2026-04-08T14:44:44.128Z</time></trkpt><trkpt lat="45.7535667" lon="8.9632483"><ele>392.28571428571433</ele><time>2026-04-08T14:44:47.13Z</time></trkpt><trkpt lat="45.7535867" lon="8.96316"><ele>393.0</ele><time>2026-04-08T14:44:50.128Z</time></trkpt><trkpt lat="45.75363" lon="8.9630917"><ele>393.28571428571433</ele><time>2026-04-08T14:44:53.127Z</time></trkpt><trkpt lat="45.75366" lon="8.9630083"><ele>393.57142857142856</ele><time>2026-04-08T14:44:56.128Z</time></trkpt><trkpt lat="45.7536917" lon="8.9629283"><ele>393.8571428571429</ele><time>2026-04-08T14:44:59.127Z</time></trkpt><trkpt lat="45.7537383" lon="8.9628317"><ele>394.14285714285717</ele><time>2026-04-08T14:45:03.127Z</time></trkpt><trkpt lat="45.753785" lon="8.96274"><ele>394.42857142857144</ele><time>2026-04-08T14:45:07.128Z</time></trkpt><trkpt lat="45.7538383" lon="8.9626683"><ele>394.7142857142857</ele><time>2026-04-08T14:45:10.128Z</time></trkpt><trkpt lat="45.7538917" lon="8.9626033"><ele>395.0</ele><time>2026-04-08T14:45:13.129Z</time></trkpt><trkpt lat="45.7539683" lon="8.962535"><ele>394.49999999999994</ele><time>2026-04-08T14:45:16.129Z</time></trkpt><trkpt lat="45.7540233" lon="8.9624617"><ele>394.0</ele><time>2026-04-08T14:45:18.13Z</time></trkpt><trkpt lat="45.7540817" lon="8.96237"><ele>393.5</ele><time>2026-04-08T14:45:20.129Z</time></trkpt><trkpt lat="45.7541317" lon="8.9622783"><ele>393.0</ele><time>2026-04-08T14:45:22.129Z</time></trkpt><trkpt lat="45.754195" lon="8.9622117"><ele>392.49999999999994</ele><time>2026-04-08T14:45:24.13Z</time></trkpt><trkpt lat="45.7542733" lon="8.96216"><ele>392.0</ele><time>2026-04-08T14:45:26.129Z</time></trkpt><trkpt lat="45.7543533" lon="8.9621"><ele>393.0</ele><time>2026-04-08T14:45:28.13Z</time></trkpt><trkpt lat="45.7544383" lon="8.9620567"><ele>394.0</ele><time>2026-04-08T14:45:30.13Z</time></trkpt><trkpt lat="45.7545183" lon="8.962"><ele>395.0</ele><time>2026-04-08T14:45:32.131Z</time></trkpt><trkpt lat="45.7545933" lon="8.9619133"><ele>396.0</ele><time>2026-04-08T14:45:34.131Z</time></trkpt><trkpt lat="45.7546683" lon="8.96182"><ele>397.0</ele><time>2026-04-08T14:45:36.129Z</time></trkpt><trkpt lat="45.75476" lon="8.9617817"><ele>397.00000000000006</ele><time>2026-04-08T14:45:38.131Z</time></trkpt><trkpt lat="45.7548467" lon="8.9617683"><ele>397.0</ele><time>2026-04-08T14:45:40.129Z</time></trkpt><trkpt lat="45.754915" lon="8.9617683"><ele>397.0</ele><time>2026-04-08T14:45:42.132Z</time></trkpt><trkpt lat="45.7550017" lon="8.9617517"><ele>397.0</ele><time>2026-04-08T14:45:45.13Z</time></trkpt><trkpt lat="45.7550817" lon="8.9618117"><ele>397.00000000000006</ele><time>2026-04-08T14:45:49.129Z</time></trkpt><trkpt lat="45.7551333" lon="8.9618767"><ele>397.0</ele><time>2026-04-08T14:45:51.13Z</time></trkpt><trkpt lat="45.755185" lon="8.9619533"><ele>397.1666666666667</ele><time>2026-04-08T14:45:53.13Z</time></trkpt><trkpt lat="45.7552667" lon="8.96202"><ele>397.33333333333337</ele><time>2026-04-08T14:45:56.13Z</time></trkpt><trkpt lat="45.75532" lon="8.9620767"><ele>397.5</ele><time>2026-04-08T14:45:58.129Z</time></trkpt><trkpt lat="45.7553933" lon="8.9621467"><ele>397.66666666666663</ele><time>2026-04-08T14:46:01.13Z</time></trkpt><trkpt lat="45.7554733" lon="8.9621783"><ele>397.8333333333333</ele><time>2026-04-08T14:46:04.13Z</time></trkpt><trkpt lat="45.75556" lon="8.9621967"><ele>398.0</ele><time>2026-04-08T14:46:07.128Z</time></trkpt><trkpt lat="45.7556283" lon="8.9622117"><ele>397.99999999999994</ele><time>2026-04-08T14:46:09.129Z</time></trkpt><trkpt lat="45.7556917" lon="8.9622183"><ele>398.0</ele><time>2026-04-08T14:46:11.129Z</time></trkpt><trkpt lat="45.7557733" lon="8.9621883"><ele>398.0</ele><time>2026-04-08T14:46:13.13Z</time></trkpt><trkpt lat="45.755845" lon="8.9621217"><ele>398.0</ele><time>2026-04-08T14:46:16.129Z</time></trkpt><trkpt lat="45.7559083" lon="8.9620333"><ele>397.99999999999994</ele><time>2026-04-08T14:46:19.129Z</time></trkpt><trkpt lat="45.7559767" lon="8.9619583"><ele>398.0</ele><time>2026-04-08T14:46:22.128Z</time></trkpt><trkpt lat="45.7560267" lon="8.9619"><ele>397.99999999999994</ele><time>2026-04-08T14:46:24.128Z</time></trkpt><trkpt lat="45.7560767" lon="8.961835"><ele>398.0</ele><time>2026-04-08T14:46:26.13Z</time></trkpt><trkpt lat="45.7561517" lon="8.9617783"><ele>398.0</ele><time>2026-04-08T14:46:29.128Z</time></trkpt><trkpt lat="45.75623" lon="8.9617283"><ele>398.0</ele><time>2026-04-08T14:46:32.129Z</time></trkpt><trkpt lat="45.7562933" lon="8.9616833"><ele>397.99999999999994</ele><time>2026-04-08T14:46:35.131Z</time></trkpt><trkpt lat="45.75636" lon="8.96161"><ele>398.0</ele><time>2026-04-08T14:46:38.131Z</time></trkpt><trkpt lat="45.7564367" lon="8.9615383"><ele>398.57142857142856</ele><time>2026-04-08T14:46:41.129Z</time></trkpt><trkpt lat="45.7564967" lon="8.96147"><ele>399.1428571428571</ele><time>2026-04-08T14:46:43.131Z</time></trkpt><trkpt lat="45.7565617" lon="8.9613967"><ele>399.71428571428567</ele><time>2026-04-08T14:46:45.13Z</time></trkpt><trkpt lat="45.7566167" lon="8.9613417"><ele>400.2857142857143</ele><time>2026-04-08T14:46:47.128Z</time></trkpt><trkpt lat="45.7566733" lon="8.961295"><ele>400.8571428571429</ele><time>2026-04-08T14:46:49.128Z</time></trkpt><trkpt lat="45.756735" lon="8.961225"><ele>401.4285714285714</ele><time>2026-04-08T14:46:52.128Z</time></trkpt><trkpt lat="45.7567883" lon="8.9611417"><ele>402.0</ele><time>2026-04-08T14:46:55.13Z</time></trkpt><trkpt lat="45.7568583" lon="8.961075"><ele>402.1666666666667</ele><time>2026-04-08T14:46:58.131Z</time></trkpt><trkpt lat="45.7569167" lon="8.9610167"><ele>402.33333333333337</ele><time>2026-04-08T14:47:00.13Z</time></trkpt><trkpt lat="45.756995" lon="8.9609733"><ele>402.5</ele><time>2026-04-08T14:47:03.131Z</time></trkpt><trkpt lat="45.75709" lon="8.9608983"><ele>402.6666666666667</ele><time>2026-04-08T14:47:06.131Z</time></trkpt><trkpt lat="45.7571617" lon="8.9608367"><ele>402.83333333333337</ele><time>2026-04-08T14:47:08.131Z</time></trkpt><trkpt lat="45.7572133" lon="8.96075"><ele>403.0</ele><time>2026-04-08T14:47:10.13Z</time></trkpt><trkpt lat="45.7572517" lon="8.960675"><ele>403.2857142857143</ele><time>2026-04-08T14:47:12.13Z</time></trkpt><trkpt lat="45.7573033" lon="8.9606167"><ele>403.57142857142856</ele><time>2026-04-08T14:47:14.131Z</time></trkpt><trkpt lat="45.7573583" lon="8.9605633"><ele>403.85714285714283</ele><time>2026-04-08T14:47:16.129Z</time></trkpt><trkpt lat="45.75743" lon="8.9604917"><ele>404.1428571428571</ele><time>2026-04-08T14:47:19.13Z</time></trkpt><trkpt lat="45.7574767" lon="8.9604233"><ele>404.42857142857144</ele><time>2026-04-08T14:47:21.13Z</time></trkpt><trkpt lat="45.7575333" lon="8.960365"><ele>404.71428571428567</ele><time>2026-04-08T14:47:23.131Z</time></trkpt><trkpt lat="45.7575967" lon="8.96031"><ele>405.0</ele><time>2026-04-08T14:47:25.13Z</time></trkpt><trkpt lat="45.7576667" lon="8.9602317"><ele>404.5</ele><time>2026-04-08T14:47:27.129Z</time></trkpt><trkpt lat="45.75771" lon="8.960165"><ele>404.0</ele><time>2026-04-08T14:47:29.129Z</time></trkpt><trkpt lat="45.7577717" lon="8.960055"><ele>403.5</ele><time>2026-04-08T14:47:32.131Z</time></trkpt><trkpt lat="45.7578233" lon="8.9599933"><ele>403.0</ele><time>2026-04-08T14:47:34.129Z</time></trkpt><trkpt lat="45.7578933" lon="8.9599083"><ele>402.5</ele><time>2026-04-08T14:47:37.129Z</time></trkpt><trkpt lat="45.7579417" lon="8.9598383"><ele>402.0</ele><time>2026-04-08T14:47:39.13Z</time></trkpt><trkpt lat="45.7580183" lon="8.95976"><ele>403.0</ele><time>2026-04-08T14:47:42.13Z</time></trkpt><trkpt lat="45.7580883" lon="8.95971"><ele>404.0</ele><time>2026-04-08T14:47:44.13Z</time></trkpt><trkpt lat="45.7581617" lon="8.95965"><ele>405.0</ele><time>2026-04-08T14:47:47.131Z</time></trkpt><trkpt lat="45.75822" lon="8.959585"><ele>406.0</ele><time>2026-04-08T14:47:50.13Z</time></trkpt><trkpt lat="45.7582767" lon="8.9595"><ele>407.0</ele><time>2026-04-08T14:47:53.13Z</time></trkpt><trkpt lat="45.7583317" lon="8.959395"><ele>408.0</ele><time>2026-04-08T14:47:56.13Z</time></trkpt><trkpt lat="45.7583717" lon="8.9592967"><ele>408.0</ele><time>2026-04-08T14:47:59.129Z</time></trkpt><trkpt lat="45.7584217" lon="8.9592233"><ele>408.0</ele><time>2026-04-08T14:48:02.13Z</time></trkpt><trkpt lat="45.75847" lon="8.9591617"><ele>408.0</ele><time>2026-04-08T14:48:04.131Z</time></trkpt><trkpt lat="45.7585283" lon="8.9590633"><ele>408.0</ele><time>2026-04-08T14:48:07.13Z</time></trkpt><trkpt lat="45.758605" lon="8.9589717"><ele>408.0</ele><time>2026-04-08T14:48:10.129Z</time></trkpt><trkpt lat="45.7586767" lon="8.9588883"><ele>408.0</ele><time>2026-04-08T14:48:13.13Z</time></trkpt><trkpt lat="45.7587317" lon="8.9588383"><ele>407.6666666666667</ele><time>2026-04-08T14:48:15.13Z</time></trkpt><trkpt lat="45.758815" lon="8.958805"><ele>407.33333333333337</ele><time>2026-04-08T14:48:18.128Z</time></trkpt><trkpt lat="45.7588533" lon="8.9586967"><ele>407.0</ele><time>2026-04-08T14:48:22.13Z</time></trkpt><trkpt lat="45.75891" lon="8.95864"><ele>406.6666666666667</ele><time>2026-04-08T14:48:25.13Z</time></trkpt><trkpt lat="45.7589883" lon="8.9585883"><ele>406.33333333333337</ele><time>2026-04-08T14:48:28.128Z</time></trkpt><trkpt lat="45.7590717" lon="8.9585133"><ele>406.0</ele><time>2026-04-08T14:48:31.129Z</time></trkpt><trkpt lat="45.75913" lon="8.95846"><ele>406.00000000000006</ele><time>2026-04-08T14:48:33.131Z</time></trkpt><trkpt lat="45.7591917" lon="8.9584217"><ele>406.0</ele><time>2026-04-08T14:48:35.13Z</time></trkpt><trkpt lat="45.7592383" lon="8.9583417"><ele>406.0</ele><time>2026-04-08T14:48:38.129Z</time></trkpt><trkpt lat="45.759295" lon="8.9582783"><ele>406.0</ele><time>2026-04-08T14:48:41.131Z</time></trkpt><trkpt lat="45.75928" lon="8.9581717"><ele>406.00000000000006</ele><time>2026-04-08T14:48:44.13Z</time></trkpt><trkpt lat="45.7592333" lon="8.958055"><ele>406.0</ele><time>2026-04-08T14:48:47.13Z</time></trkpt><trkpt lat="45.7592" lon="8.957935"><ele>406.1666666666667</ele><time>2026-04-08T14:48:50.131Z</time></trkpt><trkpt lat="45.7591767" lon="8.9578267"><ele>406.33333333333337</ele><time>2026-04-08T14:48:53.13Z</time></trkpt><trkpt lat="45.759155" lon="8.9577067"><ele>406.5</ele><time>2026-04-08T14:48:56.132Z</time></trkpt><trkpt lat="45.7591383" lon="8.9576033"><ele>406.66666666666663</ele><time>2026-04-08T14:48:59.13Z</time></trkpt><trkpt lat="45.75918" lon="8.9575017"><ele>406.8333333333333</ele><time>2026-04-08T14:49:02.131Z</time></trkpt><trkpt lat="45.7592533" lon="8.9574383"><ele>407.0</ele><time>2026-04-08T14:49:05.13Z</time></trkpt><trkpt lat="45.7593283" lon="8.957385"><ele>407.49999999999994</ele><time>2026-04-08T14:49:08.132Z</time></trkpt><trkpt lat="45.759395" lon="8.9573767"><ele>408.0</ele><time>2026-04-08T14:49:10.129Z</time></trkpt><trkpt lat="45.759465" lon="8.9573583"><ele>408.5</ele><time>2026-04-08T14:49:12.131Z</time></trkpt><trkpt lat="45.759535" lon="8.9573317"><ele>409.0</ele><time>2026-04-08T14:49:14.131Z</time></trkpt><trkpt lat="45.7596083" lon="8.9572967"><ele>409.49999999999994</ele><time>2026-04-08T14:49:16.13Z</time></trkpt><trkpt lat="45.7596933" lon="8.9572567"><ele>410.0</ele><time>2026-04-08T14:49:18.13Z</time></trkpt><trkpt lat="45.7597667" lon="8.9572167"><ele>409.99999999999994</ele><time>2026-04-08T14:49:20.131Z</time></trkpt><trkpt lat="45.75982" lon="8.9571633"><ele>410.0</ele><time>2026-04-08T14:49:22.129Z</time></trkpt><trkpt lat="45.7598483" lon="8.9570483"><ele>410.0</ele><time>2026-04-08T14:49:25.129Z</time></trkpt><trkpt lat="45.7598317" lon="8.95694"><ele>410.0</ele><time>2026-04-08T14:49:28.129Z</time></trkpt><trkpt lat="45.7598217" lon="8.956815"><ele>409.99999999999994</ele><time>2026-04-08T14:49:31.13Z</time></trkpt><trkpt lat="45.759795" lon="8.956695"><ele>410.0</ele><time>2026-04-08T14:49:34.13Z</time></trkpt><trkpt lat="45.7597717" lon="8.9565967"><ele>409.5714285714286</ele><time>2026-04-08T14:49:36.131Z</time></trkpt><trkpt lat="45.7597583" lon="8.9565033"><ele>409.1428571428571</ele><time>2026-04-08T14:49:38.129Z</time></trkpt><trkpt lat="45.759735" lon="8.9564167"><ele>408.7142857142857</ele><time>2026-04-08T14:49:40.129Z</time></trkpt><trkpt lat="45.7597267" lon="8.95629"><ele>408.28571428571433</ele><time>2026-04-08T14:49:43.128Z</time></trkpt><trkpt lat="45.7597083" lon="8.9561733"><ele>407.8571428571429</ele><time>2026-04-08T14:49:46.13Z</time></trkpt><trkpt lat="45.75969" lon="8.95608"><ele>407.42857142857144</ele><time>2026-04-08T14:49:48.129Z</time></trkpt><trkpt lat="45.7596683" lon="8.9559867"><ele>407.0</ele><time>2026-04-08T14:49:50.13Z</time></trkpt><trkpt lat="45.7596417" lon="8.955865"><ele>406.5714285714286</ele><time>2026-04-08T14:49:53.13Z</time></trkpt><trkpt lat="45.759615" lon="8.9557717"><ele>406.14285714285717</ele><time>2026-04-08T14:49:55.13Z</time></trkpt><trkpt lat="45.7595967" lon="8.9556817"><ele>405.7142857142857</ele><time>2026-04-08T14:49:57.127Z</time></trkpt><trkpt lat="45.7595667" lon="8.9555817"><ele>405.28571428571433</ele><time>2026-04-08T14:49:59.128Z</time></trkpt><trkpt lat="45.7595467" lon="8.9554883"><ele>404.85714285714283</ele><time>2026-04-08T14:50:01.127Z</time></trkpt><trkpt lat="45.7595183" lon="8.9553683"><ele>404.42857142857144</ele><time>2026-04-08T14:50:04.128Z</time></trkpt><trkpt lat="45.7595083" lon="8.9552783"><ele>404.0</ele><time>2026-04-08T14:50:06.134Z</time></trkpt><trkpt lat="45.7594917" lon="8.9551417"><ele>404.0</ele><time>2026-04-08T14:50:09.13Z</time></trkpt><trkpt lat="45.7594783" lon="8.9550467"><ele>404.0</ele><time>2026-04-08T14:50:11.128Z</time></trkpt><trkpt lat="45.7594633" lon="8.9549533"><ele>404.0</ele><time>2026-04-08T14:50:13.13Z</time></trkpt><trkpt lat="45.7594483" lon="8.95486"><ele>404.0</ele><time>2026-04-08T14:50:15.127Z</time></trkpt><trkpt lat="45.7594317" lon="8.9547683"><ele>404.0</ele><time>2026-04-08T14:50:17.128Z</time></trkpt><trkpt lat="45.75942" lon="8.9546767"><ele>404.0</ele><time>2026-04-08T14:50:19.132Z</time></trkpt><trkpt lat="45.7594" lon="8.9545833"><ele>404.0</ele><time>2026-04-08T14:50:21.129Z</time></trkpt><trkpt lat="45.75938" lon="8.95449"><ele>404.42857142857144</ele><time>2026-04-08T14:50:23.13Z</time></trkpt><trkpt lat="45.7593617" lon="8.954395"><ele>404.85714285714283</ele><time>2026-04-08T14:50:25.13Z</time></trkpt><trkpt lat="45.759345" lon="8.9542967"><ele>405.28571428571433</ele><time>2026-04-08T14:50:27.129Z</time></trkpt><trkpt lat="45.75933" lon="8.9542"><ele>405.7142857142857</ele><time>2026-04-08T14:50:29.128Z</time></trkpt><trkpt lat="45.759315" lon="8.9541083"><ele>406.14285714285717</ele><time>2026-04-08T14:50:31.128Z</time></trkpt><trkpt lat="45.759285" lon="8.9540167"><ele>406.5714285714286</ele><time>2026-04-08T14:50:33.128Z</time></trkpt><trkpt lat="45.7592483" lon="8.9539383"><ele>407.0</ele><time>2026-04-08T14:50:35.128Z</time></trkpt><trkpt lat="45.7592133" lon="8.95385"><ele>408.3333333333333</ele><time>2026-04-08T14:50:37.128Z</time></trkpt><trkpt lat="45.7591733" lon="8.9537633"><ele>409.66666666666663</ele><time>2026-04-08T14:50:39.13Z</time></trkpt><trkpt lat="45.75913" lon="8.9536567"><ele>411.0</ele><time>2026-04-08T14:50:42.128Z</time></trkpt><trkpt lat="45.759075" lon="8.9535683"><ele>412.33333333333337</ele><time>2026-04-08T14:50:45.13Z</time></trkpt><trkpt lat="45.7590267" lon="8.95346"><ele>413.6666666666667</ele><time>2026-04-08T14:50:48.128Z</time></trkpt><trkpt lat="45.7589767" lon="8.9533667"><ele>415.0</ele><time>2026-04-08T14:50:51.13Z</time></trkpt><trkpt lat="45.7589667" lon="8.9532733"><ele>416.1666666666667</ele><time>2026-04-08T14:50:54.129Z</time></trkpt><trkpt lat="45.75897" lon="8.953145"><ele>417.33333333333337</ele><time>2026-04-08T14:50:57.129Z</time></trkpt><trkpt lat="45.7590033" lon="8.953065"><ele>418.5</ele><time>2026-04-08T14:50:59.128Z</time></trkpt><trkpt lat="45.759075" lon="8.9530033"><ele>419.66666666666663</ele><time>2026-04-08T14:51:02.13Z</time></trkpt><trkpt lat="45.7591617" lon="8.9529683"><ele>420.8333333333333</ele><time>2026-04-08T14:51:05.131Z</time></trkpt><trkpt lat="45.7592417" lon="8.9529133"><ele>422.0</ele><time>2026-04-08T14:51:08.13Z</time></trkpt><trkpt lat="45.7592933" lon="8.9528433"><ele>421.99999999999994</ele><time>2026-04-08T14:51:10.13Z</time></trkpt><trkpt lat="45.759355" lon="8.9527683"><ele>422.0</ele><time>2026-04-08T14:51:12.132Z</time></trkpt><trkpt lat="45.7594083" lon="8.9526967"><ele>422.0</ele><time>2026-04-08T14:51:14.131Z</time></trkpt><trkpt lat="45.7594567" lon="8.9525983"><ele>422.0</ele><time>2026-04-08T14:51:16.13Z</time></trkpt><trkpt lat="45.7594933" lon="8.9524967"><ele>421.99999999999994</ele><time>2026-04-08T14:51:18.131Z</time></trkpt><trkpt lat="45.7595233" lon="8.9524017"><ele>422.0</ele><time>2026-04-08T14:51:20.13Z</time></trkpt><trkpt lat="45.759565" lon="8.9523283"><ele>422.0</ele><time>2026-04-08T14:51:22.13Z</time></trkpt><trkpt lat="45.7596083" lon="8.952245"><ele>422.0</ele><time>2026-04-08T14:51:24.129Z</time></trkpt><trkpt lat="45.7596433" lon="8.9521633"><ele>422.0</ele><time>2026-04-08T14:51:26.129Z</time></trkpt><trkpt lat="45.7596767" lon="8.9520683"><ele>422.0</ele><time>2026-04-08T14:51:28.129Z</time></trkpt><trkpt lat="45.75972" lon="8.9519917"><ele>422.0</ele><time>2026-04-08T14:51:30.129Z</time></trkpt><trkpt lat="45.7597533" lon="8.9519033"><ele>422.0</ele><time>2026-04-08T14:51:32.129Z</time></trkpt><trkpt lat="45.7597933" lon="8.951815"><ele>422.0</ele><time>2026-04-08T14:51:34.129Z</time></trkpt><trkpt lat="45.7598283" lon="8.951705"><ele>421.6</ele><time>2026-04-08T14:51:36.13Z</time></trkpt><trkpt lat="45.75987" lon="8.9515983"><ele>421.20000000000005</ele><time>2026-04-08T14:51:38.129Z</time></trkpt><trkpt lat="45.759915" lon="8.9514733"><ele>420.8</ele><time>2026-04-08T14:51:40.129Z</time></trkpt><trkpt lat="45.7599883" lon="8.951345"><ele>420.4</ele><time>2026-04-08T14:51:42.129Z</time></trkpt><trkpt lat="45.7600533" lon="8.9512233"><ele>420.0</ele><time>2026-04-08T14:51:44.13Z</time></trkpt><trkpt lat="45.7600867" lon="8.9510717"><ele>420.0</ele><time>2026-04-08T14:51:46.13Z</time></trkpt><trkpt lat="45.7601383" lon="8.9509417"><ele>420.0</ele><time>2026-04-08T14:51:48.129Z</time></trkpt><trkpt lat="45.76019" lon="8.9508183"><ele>420.0</ele><time>2026-04-08T14:51:50.131Z</time></trkpt><trkpt lat="45.7602317" lon="8.95071"><ele>420.0</ele><time>2026-04-08T14:51:52.129Z</time></trkpt><trkpt lat="45.7602483" lon="8.9506067"><ele>420.0</ele><time>2026-04-08T14:51:54.129Z</time></trkpt><trkpt lat="45.7602533" lon="8.9505017"><ele>420.0</ele><time>2026-04-08T14:51:56.129Z</time></trkpt><trkpt lat="45.76026" lon="8.9503683"><ele>419.8333333333333</ele><time>2026-04-08T14:51:59.129Z</time></trkpt><trkpt lat="45.7602567" lon="8.95026"><ele>419.66666666666663</ele><time>2026-04-08T14:52:01.13Z</time></trkpt><trkpt lat="45.760255" lon="8.9501517"><ele>419.5</ele><time>2026-04-08T14:52:03.13Z</time></trkpt><trkpt lat="45.76025" lon="8.950045"><ele>419.3333333333333</ele><time>2026-04-08T14:52:05.13Z</time></trkpt><trkpt lat="45.7602533" lon="8.9499467"><ele>419.16666666666663</ele><time>2026-04-08T14:52:07.129Z</time></trkpt><trkpt lat="45.76022" lon="8.94984"><ele>419.0</ele><time>2026-04-08T14:52:09.13Z</time></trkpt><trkpt lat="45.7601467" lon="8.9497283"><ele>420.0</ele><time>2026-04-08T14:52:11.133Z</time></trkpt><trkpt lat="45.7600983" lon="8.94967"><ele>421.0</ele><time>2026-04-08T14:52:12.131Z</time></trkpt><trkpt lat="45.7600133" lon="8.949585"><ele>422.0</ele><time>2026-04-08T14:52:14.13Z</time></trkpt><trkpt lat="45.7599383" lon="8.9494783"><ele>423.0</ele><time>2026-04-08T14:52:16.129Z</time></trkpt><trkpt lat="45.759865" lon="8.9493867"><ele>424.0</ele><time>2026-04-08T14:52:18.13Z</time></trkpt><trkpt lat="45.7597817" lon="8.9492933"><ele>423.4</ele><time>2026-04-08T14:52:20.13Z</time></trkpt><trkpt lat="45.7597067" lon="8.949195"><ele>422.79999999999995</ele><time>2026-04-08T14:52:22.129Z</time></trkpt><trkpt lat="45.7596467" lon="8.9491033"><ele>422.20000000000005</ele><time>2026-04-08T14:52:24.129Z</time></trkpt><trkpt lat="45.75958" lon="8.949"><ele>421.6</ele><time>2026-04-08T14:52:26.131Z</time></trkpt><trkpt lat="45.7595267" lon="8.948905"><ele>421.0</ele><time>2026-04-08T14:52:28.129Z</time></trkpt><trkpt lat="45.7594667" lon="8.9488117"><ele>421.00000000000006</ele><time>2026-04-08T14:52:30.13Z</time></trkpt><trkpt lat="45.7593933" lon="8.9487267"><ele>421.0</ele><time>2026-04-08T14:52:32.131Z</time></trkpt><trkpt lat="45.75934" lon="8.948645"><ele>421.0</ele><time>2026-04-08T14:52:34.13Z</time></trkpt><trkpt lat="45.759285" lon="8.9485617"><ele>421.0</ele><time>2026-04-08T14:52:36.13Z</time></trkpt><trkpt lat="45.75923" lon="8.9484983"><ele>421.00000000000006</ele><time>2026-04-08T14:52:38.131Z</time></trkpt><trkpt lat="45.7591883" lon="8.94843"><ele>421.0</ele><time>2026-04-08T14:52:40.129Z</time></trkpt><trkpt lat="45.759155" lon="8.9483417"><ele>421.14285714285717</ele><time>2026-04-08T14:52:42.131Z</time></trkpt><trkpt lat="45.759145" lon="8.94825"><ele>421.2857142857143</ele><time>2026-04-08T14:52:44.13Z</time></trkpt><trkpt lat="45.75916" lon="8.9481317"><ele>421.42857142857144</ele><time>2026-04-08T14:52:47.129Z</time></trkpt><trkpt lat="45.7591683" lon="8.9480417"><ele>421.57142857142856</ele><time>2026-04-08T14:52:49.131Z</time></trkpt><trkpt lat="45.7591933" lon="8.9479567"><ele>421.7142857142857</ele><time>2026-04-08T14:52:51.129Z</time></trkpt><trkpt lat="45.7592117" lon="8.9478433"><ele>421.8571428571429</ele><time>2026-04-08T14:52:53.13Z</time></trkpt><trkpt lat="45.75925" lon="8.9477383"><ele>422.0</ele><time>2026-04-08T14:52:55.132Z</time></trkpt><trkpt lat="45.7592883" lon="8.9476167"><ele>421.8</ele><time>2026-04-08T14:52:57.13Z</time></trkpt><trkpt lat="45.7593117" lon="8.9474883"><ele>421.6</ele><time>2026-04-08T14:52:59.13Z</time></trkpt><trkpt lat="45.75933" lon="8.9473783"><ele>421.40000000000003</ele><time>2026-04-08T14:53:01.131Z</time></trkpt><trkpt lat="45.759345" lon="8.9472467"><ele>421.20000000000005</ele><time>2026-04-08T14:53:03.13Z</time></trkpt><trkpt lat="45.7593617" lon="8.9471167"><ele>421.0</ele><time>2026-04-08T14:53:05.13Z</time></trkpt><trkpt lat="45.7593667" lon="8.9469767"><ele>419.6</ele><time>2026-04-08T14:53:07.129Z</time></trkpt><trkpt lat="45.75938" lon="8.9468367"><ele>418.20000000000005</ele><time>2026-04-08T14:53:09.129Z</time></trkpt><trkpt lat="45.7593967" lon="8.9466883"><ele>416.79999999999995</ele><time>2026-04-08T14:53:11.131Z</time></trkpt><trkpt lat="45.75941" lon="8.94654"><ele>415.4</ele><time>2026-04-08T14:53:13.128Z</time></trkpt><trkpt lat="45.7594167" lon="8.9463917"><ele>414.0</ele><time>2026-04-08T14:53:15.129Z</time></trkpt><trkpt lat="45.7594333" lon="8.946255"><ele>414.0</ele><time>2026-04-08T14:53:17.13Z</time></trkpt><trkpt lat="45.7594583" lon="8.9461333"><ele>414.0</ele><time>2026-04-08T14:53:19.13Z</time></trkpt><trkpt lat="45.759475" lon="8.94599"><ele>414.0</ele><time>2026-04-08T14:53:21.128Z</time></trkpt><trkpt lat="45.7594917" lon="8.9458617"><ele>414.0</ele><time>2026-04-08T14:53:23.13Z</time></trkpt><trkpt lat="45.759505" lon="8.94574"><ele>414.0</ele><time>2026-04-08T14:53:25.13Z</time></trkpt><trkpt lat="45.759545" lon="8.9456317"><ele>414.0</ele><time>2026-04-08T14:53:27.131Z</time></trkpt><trkpt lat="45.75959" lon="8.94553"><ele>414.0</ele><time>2026-04-08T14:53:29.131Z</time></trkpt><trkpt lat="45.7596467" lon="8.945415"><ele>414.0</ele><time>2026-04-08T14:53:31.131Z</time></trkpt><trkpt lat="45.7597" lon="8.945295"><ele>414.0</ele><time>2026-04-08T14:53:33.13Z</time></trkpt><trkpt lat="45.7597483" lon="8.9452133"><ele>414.0</ele><time>2026-04-08T14:53:35.13Z</time></trkpt><trkpt lat="45.7597617" lon="8.9450967"><ele>414.0</ele><time>2026-04-08T14:53:38.13Z</time></trkpt><trkpt lat="45.7597133" lon="8.9450317"><ele>414.0</ele><time>2026-04-08T14:53:40.129Z</time></trkpt><trkpt lat="45.7596467" lon="8.9450533"><ele>414.0</ele><time>2026-04-08T14:53:42.13Z</time></trkpt><trkpt lat="45.759575" lon="8.9450567"><ele>414.0</ele><time>2026-04-08T14:53:44.131Z</time></trkpt><trkpt lat="45.7595033" lon="8.945055"><ele>414.0</ele><time>2026-04-08T14:53:46.13Z</time></trkpt><trkpt lat="45.7594217" lon="8.9450583"><ele>414.0</ele><time>2026-04-08T14:53:48.13Z</time></trkpt><trkpt lat="45.7593267" lon="8.9450733"><ele>414.0</ele><time>2026-04-08T14:53:50.132Z</time></trkpt><trkpt lat="45.759235" lon="8.945115"><ele>414.79999999999995</ele><time>2026-04-08T14:53:52.13Z</time></trkpt><trkpt lat="45.75915" lon="8.9451683"><ele>415.59999999999997</ele><time>2026-04-08T14:53:54.131Z</time></trkpt><trkpt lat="45.7590733" lon="8.945225"><ele>416.4</ele><time>2026-04-08T14:53:56.13Z</time></trkpt><trkpt lat="45.7589867" lon="8.945255"><ele>417.2</ele><time>2026-04-08T14:53:58.129Z</time></trkpt><trkpt lat="45.75888" lon="8.9452833"><ele>418.0</ele><time>2026-04-08T14:54:00.132Z</time></trkpt><trkpt lat="45.75878" lon="8.94529"><ele>418.00000000000006</ele><time>2026-04-08T14:54:02.131Z</time></trkpt><trkpt lat="45.7586933" lon="8.9453083"><ele>418.0</ele><time>2026-04-08T14:54:04.13Z</time></trkpt><trkpt lat="45.75861" lon="8.945335"><ele>418.0</ele><time>2026-04-08T14:54:06.13Z</time></trkpt><trkpt lat="45.7585317" lon="8.945395"><ele>418.0</ele><time>2026-04-08T14:54:08.13Z</time></trkpt><trkpt lat="45.758445" lon="8.9454483"><ele>418.00000000000006</ele><time>2026-04-08T14:54:10.129Z</time></trkpt><trkpt lat="45.75836" lon="8.945485"><ele>418.0</ele><time>2026-04-08T14:54:12.13Z</time></trkpt><trkpt lat="45.7582633" lon="8.9455233"><ele>418.0</ele><time>2026-04-08T14:54:14.131Z</time></trkpt><trkpt lat="45.7581683" lon="8.945565"><ele>418.0</ele><time>2026-04-08T14:54:16.128Z</time></trkpt><trkpt lat="45.7580817" lon="8.94563"><ele>418.0</ele><time>2026-04-08T14:54:18.13Z</time></trkpt><trkpt lat="45.75799" lon="8.9456733"><ele>418.0</ele><time>2026-04-08T14:54:20.128Z</time></trkpt><trkpt lat="45.75788" lon="8.9456783"><ele>418.0</ele><time>2026-04-08T14:54:22.128Z</time></trkpt><trkpt lat="45.7577733" lon="8.94568"><ele>417.79999999999995</ele><time>2026-04-08T14:54:24.129Z</time></trkpt><trkpt lat="45.757665" lon="8.9456967"><ele>417.6</ele><time>2026-04-08T14:54:26.129Z</time></trkpt><trkpt lat="45.7575633" lon="8.9457133"><ele>417.4</ele><time>2026-04-08T14:54:28.129Z</time></trkpt><trkpt lat="45.75747" lon="8.9456567"><ele>417.20000000000005</ele><time>2026-04-08T14:54:30.13Z</time></trkpt><trkpt lat="45.7573917" lon="8.94557"><ele>417.0</ele><time>2026-04-08T14:54:32.131Z</time></trkpt><trkpt lat="45.757305" lon="8.945485"><ele>417.0</ele><time>2026-04-08T14:54:34.129Z</time></trkpt><trkpt lat="45.7572033" lon="8.9453883"><ele>417.0</ele><time>2026-04-08T14:54:36.131Z</time></trkpt><trkpt lat="45.7571117" lon="8.9452767"><ele>417.0</ele><time>2026-04-08T14:54:38.131Z</time></trkpt><trkpt lat="45.7570467" lon="8.94514"><ele>417.0</ele><time>2026-04-08T14:54:40.13Z</time></trkpt><trkpt lat="45.75702" lon="8.9449933"><ele>416.40000000000003</ele><time>2026-04-08T14:54:42.132Z</time></trkpt><trkpt lat="45.7569967" lon="8.94485"><ele>415.8</ele><time>2026-04-08T14:54:44.13Z</time></trkpt><trkpt lat="45.7569983" lon="8.9446867"><ele>415.2</ele><time>2026-04-08T14:54:46.131Z</time></trkpt><trkpt lat="45.7570167" lon="8.944535"><ele>414.6</ele><time>2026-04-08T14:54:48.13Z</time></trkpt><trkpt lat="45.7570183" lon="8.9443683"><ele>414.0</ele><time>2026-04-08T14:54:50.13Z</time></trkpt><trkpt lat="45.757025" lon="8.9442233"><ele>412.0</ele><time>2026-04-08T14:54:52.129Z</time></trkpt><trkpt lat="45.7570217" lon="8.9440617"><ele>410.0</ele><time>2026-04-08T14:54:54.13Z</time></trkpt><trkpt lat="45.7570133" lon="8.94389"><ele>408.0</ele><time>2026-04-08T14:54:56.131Z</time></trkpt><trkpt lat="45.7570017" lon="8.9438"><ele>406.0</ele><time>2026-04-08T14:54:57.129Z</time></trkpt><trkpt lat="45.7569817" lon="8.9436517"><ele>404.0</ele><time>2026-04-08T14:54:59.129Z</time></trkpt><trkpt lat="45.7569367" lon="8.9435267"><ele>404.0</ele><time>2026-04-08T14:55:01.13Z</time></trkpt><trkpt lat="45.7568717" lon="8.9434333"><ele>404.0</ele><time>2026-04-08T14:55:03.13Z</time></trkpt><trkpt lat="45.7568217" lon="8.9433367"><ele>404.0</ele><time>2026-04-08T14:55:05.13Z</time></trkpt><trkpt lat="45.7567583" lon="8.94323"><ele>404.0</ele><time>2026-04-08T14:55:07.128Z</time></trkpt><trkpt lat="45.75669" lon="8.9431333"><ele>404.0</ele><time>2026-04-08T14:55:09.132Z</time></trkpt><trkpt lat="45.75661" lon="8.9430617"><ele>404.79999999999995</ele><time>2026-04-08T14:55:11.131Z</time></trkpt><trkpt lat="45.756505" lon="8.9430117"><ele>405.59999999999997</ele><time>2026-04-08T14:55:13.13Z</time></trkpt><trkpt lat="45.7564033" lon="8.9429817"><ele>406.4</ele><time>2026-04-08T14:55:15.129Z</time></trkpt><trkpt lat="45.7563017" lon="8.9429517"><ele>407.2</ele><time>2026-04-08T14:55:17.13Z</time></trkpt><trkpt lat="45.756205" lon="8.942905"><ele>408.0</ele><time>2026-04-08T14:55:19.131Z</time></trkpt><trkpt lat="45.756115" lon="8.94283"><ele>408.0</ele><time>2026-04-08T14:55:21.132Z</time></trkpt><trkpt lat="45.7560417" lon="8.9427417"><ele>408.0</ele><time>2026-04-08T14:55:23.131Z</time></trkpt><trkpt lat="45.7559867" lon="8.9426233"><ele>408.0</ele><time>2026-04-08T14:55:25.131Z</time></trkpt><trkpt lat="45.7558933" lon="8.9425417"><ele>408.0</ele><time>2026-04-08T14:55:27.128Z</time></trkpt><trkpt lat="45.7557767" lon="8.942505"><ele>408.0</ele><time>2026-04-08T14:55:29.13Z</time></trkpt><trkpt lat="45.7557133" lon="8.9424967"><ele>406.75</ele><time>2026-04-08T14:55:30.13Z</time></trkpt><trkpt lat="45.75559" lon="8.9424933"><ele>405.5</ele><time>2026-04-08T14:55:32.129Z</time></trkpt><trkpt lat="45.7554717" lon="8.9424767"><ele>404.25</ele><time>2026-04-08T14:55:34.13Z</time></trkpt><trkpt lat="45.75537" lon="8.942455"><ele>403.0</ele><time>2026-04-08T14:55:36.129Z</time></trkpt><trkpt lat="45.7552633" lon="8.9424483"><ele>402.5</ele><time>2026-04-08T14:55:38.128Z</time></trkpt><trkpt lat="45.755155" lon="8.94244"><ele>402.0</ele><time>2026-04-08T14:55:40.129Z</time></trkpt><trkpt lat="45.7550517" lon="8.94243"><ele>401.5</ele><time>2026-04-08T14:55:42.128Z</time></trkpt><trkpt lat="45.754935" lon="8.9424183"><ele>401.0</ele><time>2026-04-08T14:55:44.13Z</time></trkpt><trkpt lat="45.7548133" lon="8.9424117"><ele>401.0</ele><time>2026-04-08T14:55:46.128Z</time></trkpt><trkpt lat="45.7546867" lon="8.942395"><ele>401.0</ele><time>2026-04-08T14:55:48.129Z</time></trkpt><trkpt lat="45.7546233" lon="8.9423867"><ele>401.0</ele><time>2026-04-08T14:55:49.129Z</time></trkpt><trkpt lat="45.7545083" lon="8.9423617"><ele>401.0</ele><time>2026-04-08T14:55:51.131Z</time></trkpt><trkpt lat="45.7543917" lon="8.9423267"><ele>401.0</ele><time>2026-04-08T14:55:53.13Z</time></trkpt><trkpt lat="45.7542833" lon="8.9422867"><ele>401.20000000000005</ele><time>2026-04-08T14:55:55.13Z</time></trkpt><trkpt lat="45.7541767" lon="8.9422483"><ele>401.40000000000003</ele><time>2026-04-08T14:55:57.129Z</time></trkpt><trkpt lat="45.75408" lon="8.9422067"><ele>401.6</ele><time>2026-04-08T14:55:59.13Z</time></trkpt><trkpt lat="45.7539933" lon="8.94223"><ele>401.8</ele><time>2026-04-08T14:56:01.129Z</time></trkpt><trkpt lat="45.7539083" lon="8.942305"><ele>402.0</ele><time>2026-04-08T14:56:03.13Z</time></trkpt><trkpt lat="45.7538283" lon="8.9423817"><ele>402.0</ele><time>2026-04-08T14:56:05.129Z</time></trkpt><trkpt lat="45.75377" lon="8.9424667"><ele>402.0</ele><time>2026-04-08T14:56:07.129Z</time></trkpt><trkpt lat="45.7537083" lon="8.9425383"><ele>402.0</ele><time>2026-04-08T14:56:09.131Z</time></trkpt><trkpt lat="45.753645" lon="8.9426083"><ele>402.0</ele><time>2026-04-08T14:56:11.129Z</time></trkpt><trkpt lat="45.7535867" lon="8.94267"><ele>402.0</ele><time>2026-04-08T14:56:12.129Z</time></trkpt><trkpt lat="45.7534883" lon="8.9427433"><ele>402.0</ele><time>2026-04-08T14:56:14.13Z</time></trkpt><trkpt lat="45.7533833" lon="8.9427667"><ele>401.8</ele><time>2026-04-08T14:56:16.13Z</time></trkpt><trkpt lat="45.7532833" lon="8.9427233"><ele>401.6</ele><time>2026-04-08T14:56:18.129Z</time></trkpt><trkpt lat="45.7531917" lon="8.942655"><ele>401.40000000000003</ele><time>2026-04-08T14:56:20.129Z</time></trkpt><trkpt lat="45.7530967" lon="8.9426117"><ele>401.20000000000005</ele><time>2026-04-08T14:56:22.131Z</time></trkpt><trkpt lat="45.7529983" lon="8.9425817"><ele>401.0</ele><time>2026-04-08T14:56:24.13Z</time></trkpt><trkpt lat="45.75291" lon="8.94254"><ele>400.8</ele><time>2026-04-08T14:56:26.132Z</time></trkpt><trkpt lat="45.752815" lon="8.9425117"><ele>400.6</ele><time>2026-04-08T14:56:28.131Z</time></trkpt><trkpt lat="45.7527217" lon="8.942465"><ele>400.4</ele><time>2026-04-08T14:56:30.132Z</time></trkpt><trkpt lat="45.7526333" lon="8.9424283"><ele>400.2</ele><time>2026-04-08T14:56:32.131Z</time></trkpt><trkpt lat="45.7525533" lon="8.9423983"><ele>400.0</ele><time>2026-04-08T14:56:34.13Z</time></trkpt><trkpt lat="45.7524667" lon="8.9423183"><ele>399.8</ele><time>2026-04-08T14:56:36.13Z</time></trkpt><trkpt lat="45.7523967" lon="8.94227"><ele>399.6</ele><time>2026-04-08T14:56:38.133Z</time></trkpt><trkpt lat="45.7523217" lon="8.94225"><ele>399.4</ele><time>2026-04-08T14:56:40.131Z</time></trkpt><trkpt lat="45.75224" lon="8.9423683"><ele>399.2</ele><time>2026-04-08T14:56:42.132Z</time></trkpt><trkpt lat="45.7521667" lon="8.9424883"><ele>399.0</ele><time>2026-04-08T14:56:44.131Z</time></trkpt><trkpt lat="45.7521" lon="8.9425217"><ele>399.0</ele><time>2026-04-08T14:56:46.13Z</time></trkpt><trkpt lat="45.7520233" lon="8.942525"><ele>399.0</ele><time>2026-04-08T14:56:48.13Z</time></trkpt><trkpt lat="45.7519617" lon="8.9424917"><ele>399.0</ele><time>2026-04-08T14:56:50.13Z</time></trkpt><trkpt lat="45.751905" lon="8.9424283"><ele>399.0</ele><time>2026-04-08T14:56:52.129Z</time></trkpt><trkpt lat="45.7518583" lon="8.9423583"><ele>399.0</ele><time>2026-04-08T14:56:54.13Z</time></trkpt><trkpt lat="45.7517967" lon="8.9423283"><ele>399.0</ele><time>2026-04-08T14:56:56.13Z</time></trkpt><trkpt lat="45.7517183" lon="8.9423767"><ele>399.0</ele><time>2026-04-08T14:56:59.13Z</time></trkpt><trkpt lat="45.7516467" lon="8.942415"><ele>399.1666666666667</ele><time>2026-04-08T14:57:02.132Z</time></trkpt><trkpt lat="45.7515783" lon="8.9424633"><ele>399.33333333333337</ele><time>2026-04-08T14:57:06.128Z</time></trkpt><trkpt lat="45.751495" lon="8.942495"><ele>399.5</ele><time>2026-04-08T14:57:12.131Z</time></trkpt><trkpt lat="45.751435" lon="8.942545"><ele>399.6666666666667</ele><time>2026-04-08T14:57:15.13Z</time></trkpt><trkpt lat="45.7513783" lon="8.9425917"><ele>399.83333333333337</ele><time>2026-04-08T14:57:18.131Z</time></trkpt><trkpt lat="45.7513067" lon="8.9426433"><ele>400.0</ele><time>2026-04-08T14:57:21.13Z</time></trkpt><trkpt lat="45.7512417" lon="8.9426933"><ele>400.00000000000006</ele><time>2026-04-08T14:57:23.131Z</time></trkpt><trkpt lat="45.7511567" lon="8.9427783"><ele>400.0</ele><time>2026-04-08T14:57:25.131Z</time></trkpt><trkpt lat="45.75106" lon="8.9428633"><ele>400.0</ele><time>2026-04-08T14:57:27.129Z</time></trkpt><trkpt lat="45.7509817" lon="8.942905"><ele>400.0</ele><time>2026-04-08T14:57:29.13Z</time></trkpt><trkpt lat="45.7509083" lon="8.94293"><ele>400.00000000000006</ele><time>2026-04-08T14:57:31.13Z</time></trkpt><trkpt lat="45.75084" lon="8.9429667"><ele>400.0</ele><time>2026-04-08T14:57:33.13Z</time></trkpt><trkpt lat="45.7507717" lon="8.9430317"><ele>399.50000000000006</ele><time>2026-04-08T14:57:35.13Z</time></trkpt><trkpt lat="45.7507017" lon="8.9430867"><ele>399.0</ele><time>2026-04-08T14:57:37.132Z</time></trkpt><trkpt lat="45.7506317" lon="8.9431367"><ele>398.5</ele><time>2026-04-08T14:57:39.132Z</time></trkpt><trkpt lat="45.7505583" lon="8.943205"><ele>398.0</ele><time>2026-04-08T14:57:41.131Z</time></trkpt><trkpt lat="45.750485" lon="8.9432667"><ele>397.50000000000006</ele><time>2026-04-08T14:57:43.128Z</time></trkpt><trkpt lat="45.7504033" lon="8.94332"><ele>397.0</ele><time>2026-04-08T14:57:45.129Z</time></trkpt><trkpt lat="45.7503217" lon="8.943365"><ele>397.1666666666667</ele><time>2026-04-08T14:57:47.13Z</time></trkpt><trkpt lat="45.7502433" lon="8.943415"><ele>397.33333333333337</ele><time>2026-04-08T14:57:49.13Z</time></trkpt><trkpt lat="45.7501583" lon="8.9434583"><ele>397.5</ele><time>2026-04-08T14:57:51.13Z</time></trkpt><trkpt lat="45.7500817" lon="8.94352"><ele>397.66666666666663</ele><time>2026-04-08T14:57:53.13Z</time></trkpt><trkpt lat="45.750015" lon="8.9435867"><ele>397.8333333333333</ele><time>2026-04-08T14:57:55.13Z</time></trkpt><trkpt lat="45.74996" lon="8.9436617"><ele>398.0</ele><time>2026-04-08T14:57:57.128Z</time></trkpt><trkpt lat="45.749905" lon="8.94373"><ele>397.16666666666663</ele><time>2026-04-08T14:57:59.13Z</time></trkpt><trkpt lat="45.7498383" lon="8.9437967"><ele>396.3333333333333</ele><time>2026-04-08T14:58:01.13Z</time></trkpt><trkpt lat="45.7497617" lon="8.9438417"><ele>395.5</ele><time>2026-04-08T14:58:03.131Z</time></trkpt><trkpt lat="45.7496867" lon="8.9438833"><ele>394.66666666666663</ele><time>2026-04-08T14:58:05.13Z</time></trkpt><trkpt lat="45.7496033" lon="8.9439367"><ele>393.8333333333333</ele><time>2026-04-08T14:58:07.131Z</time></trkpt><trkpt lat="45.7495217" lon="8.944"><ele>393.0</ele><time>2026-04-08T14:58:09.13Z</time></trkpt><trkpt lat="45.7494383" lon="8.9440567"><ele>392.59999999999997</ele><time>2026-04-08T14:58:11.132Z</time></trkpt><trkpt lat="45.7493467" lon="8.9441183"><ele>392.2</ele><time>2026-04-08T14:58:13.131Z</time></trkpt><trkpt lat="45.7492567" lon="8.9441717"><ele>391.8</ele><time>2026-04-08T14:58:15.131Z</time></trkpt><trkpt lat="45.7491617" lon="8.9442183"><ele>391.4</ele><time>2026-04-08T14:58:17.131Z</time></trkpt><trkpt lat="45.7490683" lon="8.9442667"><ele>391.0</ele><time>2026-04-08T14:58:19.13Z</time></trkpt><trkpt lat="45.74898" lon="8.9443417"><ele>391.0</ele><time>2026-04-08T14:58:21.13Z</time></trkpt><trkpt lat="45.7488833" lon="8.9444317"><ele>391.0</ele><time>2026-04-08T14:58:23.131Z</time></trkpt><trkpt lat="45.748785" lon="8.9445117"><ele>391.0</ele><time>2026-04-08T14:58:25.13Z</time></trkpt><trkpt lat="45.74869" lon="8.944575"><ele>391.0</ele><time>2026-04-08T14:58:27.13Z</time></trkpt><trkpt lat="45.748605" lon="8.9446267"><ele>391.0</ele><time>2026-04-08T14:58:29.131Z</time></trkpt><trkpt lat="45.7485183" lon="8.9446833"><ele>390.50000000000006</ele><time>2026-04-08T14:58:31.131Z</time></trkpt><trkpt lat="45.7484333" lon="8.9447283"><ele>390.0</ele><time>2026-04-08T14:58:33.132Z</time></trkpt><trkpt lat="45.7483483" lon="8.944765"><ele>389.5</ele><time>2026-04-08T14:58:35.13Z</time></trkpt><trkpt lat="45.7482817" lon="8.9448067"><ele>389.0</ele><time>2026-04-08T14:58:37.131Z</time></trkpt><trkpt lat="45.7482283" lon="8.94486"><ele>388.50000000000006</ele><time>2026-04-08T14:58:40.13Z</time></trkpt><trkpt lat="45.7482667" lon="8.9449417"><ele>388.0</ele><time>2026-04-08T14:58:44.131Z</time></trkpt><trkpt lat="45.7483483" lon="8.9449233"><ele>388.00000000000006</ele><time>2026-04-08T14:58:47.132Z</time></trkpt><trkpt lat="45.74843" lon="8.9449317"><ele>388.0</ele><time>2026-04-08T14:58:50.131Z</time></trkpt><trkpt lat="45.74852" lon="8.9449383"><ele>388.0</ele><time>2026-04-08T14:58:53.129Z</time></trkpt><trkpt lat="45.7485833" lon="8.94494"><ele>388.0</ele><time>2026-04-08T14:58:55.13Z</time></trkpt><trkpt lat="45.7486567" lon="8.9449417"><ele>388.00000000000006</ele><time>2026-04-08T14:58:58.127Z</time></trkpt><trkpt lat="45.748725" lon="8.944945"><ele>388.0</ele><time>2026-04-08T14:59:00.129Z</time></trkpt><trkpt lat="45.7488067" lon="8.9449683"><ele>388.50000000000006</ele><time>2026-04-08T14:59:03.128Z</time></trkpt><trkpt lat="45.7488867" lon="8.9449617"><ele>389.0</ele><time>2026-04-08T14:59:07.128Z</time></trkpt><trkpt lat="45.748965" lon="8.94496"><ele>389.5</ele><time>2026-04-08T14:59:10.129Z</time></trkpt><trkpt lat="45.7490667" lon="8.9449767"><ele>390.0</ele><time>2026-04-08T14:59:13.127Z</time></trkpt><trkpt lat="45.7491517" lon="8.9450083"><ele>390.50000000000006</ele><time>2026-04-08T14:59:16.127Z</time></trkpt><trkpt lat="45.74923" lon="8.9450117"><ele>391.0</ele><time>2026-04-08T14:59:19.129Z</time></trkpt><trkpt lat="45.749315" lon="8.9450117"><ele>391.00000000000006</ele><time>2026-04-08T14:59:22.128Z</time></trkpt><trkpt lat="45.7493983" lon="8.94505"><ele>391.0</ele><time>2026-04-08T14:59:25.129Z</time></trkpt><trkpt lat="45.7494733" lon="8.9451217"><ele>391.0</ele><time>2026-04-08T14:59:28.129Z</time></trkpt><trkpt lat="45.7495317" lon="8.9451783"><ele>391.0</ele><time>2026-04-08T14:59:30.129Z</time></trkpt><trkpt lat="45.7495717" lon="8.9452567"><ele>391.00000000000006</ele><time>2026-04-08T14:59:33.13Z</time></trkpt><trkpt lat="45.74966" lon="8.9452667"><ele>391.0</ele><time>2026-04-08T14:59:37.129Z</time></trkpt><trkpt lat="45.7497317" lon="8.94523"><ele>391.00000000000006</ele><time>2026-04-08T14:59:40.129Z</time></trkpt><trkpt lat="45.7498067" lon="8.9451733"><ele>391.0</ele><time>2026-04-08T14:59:43.13Z</time></trkpt><trkpt lat="45.7498783" lon="8.9451217"><ele>391.0</ele><time>2026-04-08T14:59:46.131Z</time></trkpt><trkpt lat="45.7499433" lon="8.9450783"><ele>391.0</ele><time>2026-04-08T14:59:48.13Z</time></trkpt><trkpt lat="45.7500233" lon="8.94506"><ele>391.00000000000006</ele><time>2026-04-08T14:59:50.129Z</time></trkpt><trkpt lat="45.7500983" lon="8.9450667"><ele>391.0</ele><time>2026-04-08T14:59:53.129Z</time></trkpt><trkpt lat="45.7501633" lon="8.9450867"><ele>391.33333333333337</ele><time>2026-04-08T14:59:57.131Z</time></trkpt><trkpt lat="45.7502283" lon="8.9451083"><ele>391.6666666666667</ele><time>2026-04-08T15:00:00.13Z</time></trkpt><trkpt lat="45.7503217" lon="8.945105"><ele>392.0</ele><time>2026-04-08T15:00:03.128Z</time></trkpt><trkpt lat="45.7504133" lon="8.9450683"><ele>392.33333333333337</ele><time>2026-04-08T15:00:06.13Z</time></trkpt><trkpt lat="45.7504933" lon="8.945065"><ele>392.6666666666667</ele><time>2026-04-08T15:00:09.131Z</time></trkpt><trkpt lat="45.7505717" lon="8.9450867"><ele>393.0</ele><time>2026-04-08T15:00:13.131Z</time></trkpt><trkpt lat="45.7506317" lon="8.9451217"><ele>393.0</ele><time>2026-04-08T15:00:15.129Z</time></trkpt><trkpt lat="45.7506933" lon="8.9451433"><ele>393.0</ele><time>2026-04-08T15:00:17.129Z</time></trkpt><trkpt lat="45.7507717" lon="8.9451633"><ele>393.0</ele><time>2026-04-08T15:00:20.13Z</time></trkpt><trkpt lat="45.7508467" lon="8.9451583"><ele>393.0</ele><time>2026-04-08T15:00:23.129Z</time></trkpt><trkpt lat="45.7509333" lon="8.9451567"><ele>393.0</ele><time>2026-04-08T15:00:26.129Z</time></trkpt><trkpt lat="45.7510133" lon="8.945185"><ele>393.0</ele><time>2026-04-08T15:00:28.13Z</time></trkpt><trkpt lat="45.7510833" lon="8.9452083"><ele>394.00000000000006</ele><time>2026-04-08T15:00:30.13Z</time></trkpt><trkpt lat="45.7511467" lon="8.94521"><ele>395.0</ele><time>2026-04-08T15:00:32.13Z</time></trkpt><trkpt lat="45.751225" lon="8.9452"><ele>396.0</ele><time>2026-04-08T15:00:35.129Z</time></trkpt><trkpt lat="45.7513067" lon="8.9452"><ele>397.0</ele><time>2026-04-08T15:00:38.13Z</time></trkpt><trkpt lat="45.7513717" lon="8.9452033"><ele>398.0</ele><time>2026-04-08T15:00:40.129Z</time></trkpt><trkpt lat="45.7514417" lon="8.9451983"><ele>399.00000000000006</ele><time>2026-04-08T15:00:42.13Z</time></trkpt><trkpt lat="45.7515317" lon="8.94519"><ele>400.0</ele><time>2026-04-08T15:00:44.129Z</time></trkpt><trkpt lat="45.7516017" lon="8.9451617"><ele>400.00000000000006</ele><time>2026-04-08T15:00:46.131Z</time></trkpt><trkpt lat="45.7516633" lon="8.9451283"><ele>400.0</ele><time>2026-04-08T15:00:48.128Z</time></trkpt><trkpt lat="45.7517367" lon="8.9451"><ele>400.0</ele><time>2026-04-08T15:00:50.13Z</time></trkpt><trkpt lat="45.7518" lon="8.94507"><ele>400.0</ele><time>2026-04-08T15:00:52.128Z</time></trkpt><trkpt lat="45.7518967" lon="8.9450467"><ele>400.0</ele><time>2026-04-08T15:00:55.129Z</time></trkpt><trkpt lat="45.7519583" lon="8.9450183"><ele>400.00000000000006</ele><time>2026-04-08T15:00:57.129Z</time></trkpt><trkpt lat="45.7520217" lon="8.9450017"><ele>400.0</ele><time>2026-04-08T15:00:59.13Z</time></trkpt><trkpt lat="45.7520883" lon="8.945005"><ele>400.50000000000006</ele><time>2026-04-08T15:01:01.13Z</time></trkpt><trkpt lat="45.7521567" lon="8.9450267"><ele>401.0</ele><time>2026-04-08T15:01:03.13Z</time></trkpt><trkpt lat="45.752245" lon="8.945025"><ele>401.5</ele><time>2026-04-08T15:01:05.13Z</time></trkpt><trkpt lat="45.7523317" lon="8.94504"><ele>402.0</ele><time>2026-04-08T15:01:07.129Z</time></trkpt><trkpt lat="45.7524117" lon="8.9450383"><ele>402.50000000000006</ele><time>2026-04-08T15:01:09.129Z</time></trkpt><trkpt lat="45.7524867" lon="8.9450417"><ele>403.0</ele><time>2026-04-08T15:01:11.128Z</time></trkpt><trkpt lat="45.7525533" lon="8.9450667"><ele>403.0</ele><time>2026-04-08T15:01:13.13Z</time></trkpt><trkpt lat="45.75264" lon="8.945135"><ele>403.0</ele><time>2026-04-08T15:01:16.128Z</time></trkpt><trkpt lat="45.7526883" lon="8.9452017"><ele>403.0</ele><time>2026-04-08T15:01:18.129Z</time></trkpt><trkpt lat="45.7527217" lon="8.945285"><ele>403.0</ele><time>2026-04-08T15:01:20.13Z</time></trkpt><trkpt lat="45.7527433" lon="8.94538"><ele>403.0</ele><time>2026-04-08T15:01:22.127Z</time></trkpt><trkpt lat="45.75277" lon="8.945485"><ele>403.0</ele><time>2026-04-08T15:01:24.131Z</time></trkpt><trkpt lat="45.7527917" lon="8.945575"><ele>403.0</ele><time>2026-04-08T15:01:26.129Z</time></trkpt><trkpt lat="45.7528283" lon="8.9456917"><ele>403.00000000000006</ele><time>2026-04-08T15:01:29.132Z</time></trkpt><trkpt lat="45.75288" lon="8.9457817"><ele>403.0</ele><time>2026-04-08T15:01:32.13Z</time></trkpt><trkpt lat="45.7529367" lon="8.9458517"><ele>403.0</ele><time>2026-04-08T15:01:35.129Z</time></trkpt><trkpt lat="45.7529867" lon="8.9459317"><ele>403.0</ele><time>2026-04-08T15:01:38.13Z</time></trkpt><trkpt lat="45.75307" lon="8.9459483"><ele>403.00000000000006</ele><time>2026-04-08T15:01:41.129Z</time></trkpt><trkpt lat="45.753145" lon="8.9459383"><ele>403.0</ele><time>2026-04-08T15:01:44.129Z</time></trkpt><trkpt lat="45.7532133" lon="8.9459333"><ele>403.0</ele><time>2026-04-08T15:01:47.13Z</time></trkpt><trkpt lat="45.753285" lon="8.9459333"><ele>403.0</ele><time>2026-04-08T15:01:51.13Z</time></trkpt><trkpt lat="45.7534433" lon="8.9458917"><ele>403.0</ele><time>2026-04-08T15:02:30.13Z</time></trkpt><trkpt lat="45.75352" lon="8.9458783"><ele>403.0</ele><time>2026-04-08T15:02:35.129Z</time></trkpt><trkpt lat="45.7535833" lon="8.9459383"><ele>403.0</ele><time>2026-04-08T15:02:38.13Z</time></trkpt><trkpt lat="45.75365" lon="8.9459783"><ele>404.1666666666667</ele><time>2026-04-08T15:02:41.13Z</time></trkpt><trkpt lat="45.7537183" lon="8.9460283"><ele>405.33333333333337</ele><time>2026-04-08T15:02:44.131Z</time></trkpt><trkpt lat="45.75379" lon="8.9460617"><ele>406.5</ele><time>2026-04-08T15:02:48.13Z</time></trkpt><trkpt lat="45.75386" lon="8.9461233"><ele>407.66666666666663</ele><time>2026-04-08T15:02:51.129Z</time></trkpt><trkpt lat="45.75392" lon="8.9462167"><ele>408.8333333333333</ele><time>2026-04-08T15:02:54.129Z</time></trkpt><trkpt lat="45.753985" lon="8.9463067"><ele>410.0</ele><time>2026-04-08T15:02:57.129Z</time></trkpt><trkpt lat="45.7540383" lon="8.9463567"><ele>409.99999999999994</ele><time>2026-04-08T15:02:59.128Z</time></trkpt><trkpt lat="45.7541017" lon="8.9464233"><ele>410.0</ele><time>2026-04-08T15:03:02.129Z</time></trkpt><trkpt lat="45.754165" lon="8.94649"><ele>410.0</ele><time>2026-04-08T15:03:05.13Z</time></trkpt><trkpt lat="45.7542417" lon="8.94649"><ele>410.0</ele><time>2026-04-08T15:03:09.129Z</time></trkpt><trkpt lat="45.7543233" lon="8.9464533"><ele>409.99999999999994</ele><time>2026-04-08T15:03:12.13Z</time></trkpt><trkpt lat="45.754385" lon="8.946475"><ele>410.0</ele><time>2026-04-08T15:03:15.129Z</time></trkpt><trkpt lat="45.7544683" lon="8.9464833"><ele>409.99999999999994</ele><time>2026-04-08T15:03:42.129Z</time></trkpt><trkpt lat="45.754535" lon="8.9464317"><ele>410.0</ele><time>2026-04-08T15:03:46.129Z</time></trkpt><trkpt lat="45.7546117" lon="8.946415"><ele>410.0</ele><time>2026-04-08T15:03:49.129Z</time></trkpt><trkpt lat="45.7546767" lon="8.9463983"><ele>410.0</ele><time>2026-04-08T15:03:51.13Z</time></trkpt><trkpt lat="45.75474" lon="8.9463933"><ele>409.99999999999994</ele><time>2026-04-08T15:03:53.132Z</time></trkpt><trkpt lat="45.7548217" lon="8.9463983"><ele>410.0</ele><time>2026-04-08T15:03:56.13Z</time></trkpt><trkpt lat="45.7549083" lon="8.946395"><ele>409.99999999999994</ele><time>2026-04-08T15:03:59.129Z</time></trkpt><trkpt lat="45.7549833" lon="8.94639"><ele>410.0</ele><time>2026-04-08T15:04:02.13Z</time></trkpt><trkpt lat="45.7550667" lon="8.946385"><ele>410.0</ele><time>2026-04-08T15:04:05.13Z</time></trkpt><trkpt lat="45.755145" lon="8.9463583"><ele>410.0</ele><time>2026-04-08T15:04:08.131Z</time></trkpt><trkpt lat="45.75524" lon="8.946335"><ele>409.99999999999994</ele><time>2026-04-08T15:04:11.129Z</time></trkpt><trkpt lat="45.755315" lon="8.9463267"><ele>410.0</ele><time>2026-04-08T15:04:13.131Z</time></trkpt><trkpt lat="45.7553967" lon="8.946305"><ele>410.66666666666663</ele><time>2026-04-08T15:04:15.13Z</time></trkpt><trkpt lat="45.755475" lon="8.946295"><ele>411.3333333333333</ele><time>2026-04-08T15:04:17.131Z</time></trkpt><trkpt lat="45.7555583" lon="8.9462767"><ele>412.0</ele><time>2026-04-08T15:04:19.13Z</time></trkpt><trkpt lat="45.7556267" lon="8.946265"><ele>412.66666666666663</ele><time>2026-04-08T15:04:21.129Z</time></trkpt><trkpt lat="45.7557" lon="8.9462383"><ele>413.3333333333333</ele><time>2026-04-08T15:04:23.13Z</time></trkpt><trkpt lat="45.7557917" lon="8.9462183"><ele>414.0</ele><time>2026-04-08T15:04:26.131Z</time></trkpt><trkpt lat="45.7558767" lon="8.946185"><ele>414.00000000000006</ele><time>2026-04-08T15:04:29.129Z</time></trkpt><trkpt lat="45.7559367" lon="8.9461483"><ele>414.0</ele><time>2026-04-08T15:04:31.131Z</time></trkpt><trkpt lat="45.756005" lon="8.9461267"><ele>414.0</ele><time>2026-04-08T15:04:33.129Z</time></trkpt><trkpt lat="45.7560983" lon="8.9461067"><ele>414.0</ele><time>2026-04-08T15:04:36.13Z</time></trkpt><trkpt lat="45.7561617" lon="8.946085"><ele>414.0</ele><time>2026-04-08T15:04:38.13Z</time></trkpt><trkpt lat="45.75623" lon="8.94602"><ele>414.00000000000006</ele><time>2026-04-08T15:04:41.13Z</time></trkpt><trkpt lat="45.756295" lon="8.9459933"><ele>414.0</ele><time>2026-04-08T15:04:43.131Z</time></trkpt><trkpt lat="45.7563817" lon="8.9459817"><ele>414.1666666666667</ele><time>2026-04-08T15:04:45.129Z</time></trkpt><trkpt lat="45.7564783" lon="8.945965"><ele>414.33333333333337</ele><time>2026-04-08T15:04:47.131Z</time></trkpt><trkpt lat="45.75657" lon="8.94594"><ele>414.5</ele><time>2026-04-08T15:04:49.129Z</time></trkpt><trkpt lat="45.7566667" lon="8.9459067"><ele>414.6666666666667</ele><time>2026-04-08T15:04:51.129Z</time></trkpt><trkpt lat="45.756735" lon="8.9458767"><ele>414.83333333333337</ele><time>2026-04-08T15:04:53.129Z</time></trkpt><trkpt lat="45.7568117" lon="8.9458533"><ele>415.0</ele><time>2026-04-08T15:04:55.13Z</time></trkpt><trkpt lat="45.7568783" lon="8.9458467"><ele>415.2857142857143</ele><time>2026-04-08T15:04:57.13Z</time></trkpt><trkpt lat="45.7569667" lon="8.9458233"><ele>415.57142857142856</ele><time>2026-04-08T15:04:59.129Z</time></trkpt><trkpt lat="45.75703" lon="8.9458"><ele>415.8571428571429</ele><time>2026-04-08T15:05:01.13Z</time></trkpt><trkpt lat="45.757095" lon="8.945785"><ele>416.1428571428571</ele><time>2026-04-08T15:05:03.129Z</time></trkpt><trkpt lat="45.7571683" lon="8.9457683"><ele>416.4285714285714</ele><time>2026-04-08T15:05:05.131Z</time></trkpt><trkpt lat="45.7572433" lon="8.945755"><ele>416.7142857142857</ele><time>2026-04-08T15:05:07.129Z</time></trkpt><trkpt lat="45.7573117" lon="8.9457517"><ele>417.0</ele><time>2026-04-08T15:05:09.129Z</time></trkpt><trkpt lat="45.7573933" lon="8.94576"><ele>417.0</ele><time>2026-04-08T15:05:11.13Z</time></trkpt><trkpt lat="45.7574867" lon="8.9457483"><ele>417.0</ele><time>2026-04-08T15:05:14.13Z</time></trkpt><trkpt lat="45.7575667" lon="8.9457333"><ele>417.0</ele><time>2026-04-08T15:05:16.13Z</time></trkpt><trkpt lat="45.7576333" lon="8.9457217"><ele>417.0</ele><time>2026-04-08T15:05:18.13Z</time></trkpt><trkpt lat="45.7576883" lon="8.9457667"><ele>417.0</ele><time>2026-04-08T15:05:21.129Z</time></trkpt><trkpt lat="45.7576533" lon="8.945855"><ele>417.0</ele><time>2026-04-08T15:05:26.129Z</time></trkpt><trkpt lat="45.7575983" lon="8.9459367"><ele>416.8333333333333</ele><time>2026-04-08T15:05:30.131Z</time></trkpt><trkpt lat="45.757525" lon="8.9460067"><ele>416.66666666666663</ele><time>2026-04-08T15:05:33.129Z</time></trkpt><trkpt lat="45.7574583" lon="8.94611"><ele>416.5</ele><time>2026-04-08T15:05:36.13Z</time></trkpt><trkpt lat="45.7574217" lon="8.9462133"><ele>416.3333333333333</ele><time>2026-04-08T15:05:38.132Z</time></trkpt><trkpt lat="45.7573667" lon="8.9463067"><ele>416.16666666666663</ele><time>2026-04-08T15:05:40.13Z</time></trkpt><trkpt lat="45.7573183" lon="8.9464"><ele>416.0</ele><time>2026-04-08T15:05:42.129Z</time></trkpt><trkpt lat="45.75727" lon="8.9464883"><ele>415.99999999999994</ele><time>2026-04-08T15:05:44.129Z</time></trkpt><trkpt lat="45.7572317" lon="8.94658"><ele>416.0</ele><time>2026-04-08T15:05:46.129Z</time></trkpt><trkpt lat="45.7571717" lon="8.9466567"><ele>416.0</ele><time>2026-04-08T15:05:48.129Z</time></trkpt><trkpt lat="45.7570967" lon="8.946705"><ele>416.0</ele><time>2026-04-08T15:05:50.131Z</time></trkpt><trkpt lat="45.7570317" lon="8.9467683"><ele>415.99999999999994</ele><time>2026-04-08T15:05:52.129Z</time></trkpt><trkpt lat="45.7569767" lon="8.94686"><ele>416.0</ele><time>2026-04-08T15:05:55.13Z</time></trkpt><trkpt lat="45.7569633" lon="8.9469617"><ele>416.4285714285714</ele><time>2026-04-08T15:05:57.13Z</time></trkpt><trkpt lat="45.7569533" lon="8.9470767"><ele>416.8571428571429</ele><time>2026-04-08T15:05:59.129Z</time></trkpt><trkpt lat="45.7569367" lon="8.947195"><ele>417.2857142857143</ele><time>2026-04-08T15:06:01.13Z</time></trkpt><trkpt lat="45.7569217" lon="8.9472833"><ele>417.71428571428567</ele><time>2026-04-08T15:06:03.129Z</time></trkpt><trkpt lat="45.75691" lon="8.9473867"><ele>418.1428571428571</ele><time>2026-04-08T15:06:05.129Z</time></trkpt><trkpt lat="45.7568983" lon="8.9474783"><ele>418.57142857142856</ele><time>2026-04-08T15:06:07.128Z</time></trkpt><trkpt lat="45.756865" lon="8.947585"><ele>419.0</ele><time>2026-04-08T15:06:09.129Z</time></trkpt><trkpt lat="45.756795" lon="8.9476517"><ele>418.99999999999994</ele><time>2026-04-08T15:06:11.131Z</time></trkpt><trkpt lat="45.7567017" lon="8.9476333"><ele>419.0</ele><time>2026-04-08T15:06:14.132Z</time></trkpt><trkpt lat="45.7566317" lon="8.947635"><ele>419.0</ele><time>2026-04-08T15:06:16.128Z</time></trkpt><trkpt lat="45.7565867" lon="8.9477733"><ele>419.0</ele><time>2026-04-08T15:06:19.13Z</time></trkpt><trkpt lat="45.75657" lon="8.9479067"><ele>418.99999999999994</ele><time>2026-04-08T15:06:21.129Z</time></trkpt><trkpt lat="45.7565817" lon="8.948025"><ele>419.0</ele><time>2026-04-08T15:06:23.13Z</time></trkpt><trkpt lat="45.7565817" lon="8.9481333"><ele>418.99999999999994</ele><time>2026-04-08T15:06:25.13Z</time></trkpt><trkpt lat="45.7565767" lon="8.948235"><ele>419.0</ele><time>2026-04-08T15:06:27.13Z</time></trkpt><trkpt lat="45.7565817" lon="8.9483567"><ele>419.0</ele><time>2026-04-08T15:06:29.13Z</time></trkpt><trkpt lat="45.7565767" lon="8.9484783"><ele>419.0</ele><time>2026-04-08T15:06:31.129Z</time></trkpt><trkpt lat="45.7565833" lon="8.9485983"><ele>418.99999999999994</ele><time>2026-04-08T15:06:33.13Z</time></trkpt><trkpt lat="45.7565933" lon="8.9487233"><ele>419.0</ele><time>2026-04-08T15:06:35.129Z</time></trkpt><trkpt lat="45.7565967" lon="8.9488617"><ele>418.49999999999994</ele><time>2026-04-08T15:06:37.129Z</time></trkpt><trkpt lat="45.756605" lon="8.948975"><ele>418.0</ele><time>2026-04-08T15:06:39.131Z</time></trkpt><trkpt lat="45.7566083" lon="8.9490833"><ele>417.5</ele><time>2026-04-08T15:06:41.129Z</time></trkpt><trkpt lat="45.756615" lon="8.94919"><ele>417.0</ele><time>2026-04-08T15:06:43.13Z</time></trkpt><trkpt lat="45.756625" lon="8.949315"><ele>416.49999999999994</ele><time>2026-04-08T15:06:45.13Z</time></trkpt><trkpt lat="45.75663" lon="8.9494317"><ele>416.0</ele><time>2026-04-08T15:06:47.129Z</time></trkpt><trkpt lat="45.756635" lon="8.9495333"><ele>416.16666666666663</ele><time>2026-04-08T15:06:49.129Z</time></trkpt><trkpt lat="45.7566583" lon="8.949665"><ele>416.3333333333333</ele><time>2026-04-08T15:06:51.131Z</time></trkpt><trkpt lat="45.7566467" lon="8.9498033"><ele>416.5</ele><time>2026-04-08T15:06:53.128Z</time></trkpt><trkpt lat="45.7566017" lon="8.949905"><ele>416.66666666666663</ele><time>2026-04-08T15:06:55.131Z</time></trkpt><trkpt lat="45.7565433" lon="8.9499783"><ele>416.8333333333333</ele><time>2026-04-08T15:06:58.13Z</time></trkpt><trkpt lat="45.7564683" lon="8.950045"><ele>417.0</ele><time>2026-04-08T15:07:02.131Z</time></trkpt><trkpt lat="45.756385" lon="8.9500633"><ele>417.0</ele><time>2026-04-08T15:07:05.13Z</time></trkpt><trkpt lat="45.7563033" lon="8.9501233"><ele>417.0</ele><time>2026-04-08T15:07:08.13Z</time></trkpt><trkpt lat="45.756235" lon="8.95018"><ele>417.0</ele><time>2026-04-08T15:07:10.131Z</time></trkpt><trkpt lat="45.756185" lon="8.9502483"><ele>417.0</ele><time>2026-04-08T15:07:12.13Z</time></trkpt><trkpt lat="45.7561317" lon="8.9503283"><ele>417.0</ele><time>2026-04-08T15:07:14.131Z</time></trkpt><trkpt lat="45.756105" lon="8.9504117"><ele>417.0</ele><time>2026-04-08T15:07:16.13Z</time></trkpt><trkpt lat="45.7560667" lon="8.9505117"><ele>416.6666666666667</ele><time>2026-04-08T15:07:19.131Z</time></trkpt><trkpt lat="45.7559617" lon="8.95054"><ele>416.33333333333337</ele><time>2026-04-08T15:07:22.13Z</time></trkpt><trkpt lat="45.7558883" lon="8.95057"><ele>416.0</ele><time>2026-04-08T15:07:24.13Z</time></trkpt><trkpt lat="45.755825" lon="8.9506383"><ele>415.6666666666667</ele><time>2026-04-08T15:07:26.131Z</time></trkpt><trkpt lat="45.7557667" lon="8.95074"><ele>415.33333333333337</ele><time>2026-04-08T15:07:28.132Z</time></trkpt><trkpt lat="45.755715" lon="8.950825"><ele>415.0</ele><time>2026-04-08T15:07:30.133Z</time></trkpt><trkpt lat="45.7556467" lon="8.9509067"><ele>415.57142857142856</ele><time>2026-04-08T15:07:33.13Z</time></trkpt><trkpt lat="45.7555917" lon="8.9509517"><ele>416.14285714285717</ele><time>2026-04-08T15:07:35.13Z</time></trkpt><trkpt lat="45.7555083" lon="8.95099"><ele>416.71428571428567</ele><time>2026-04-08T15:07:38.131Z</time></trkpt><trkpt lat="45.7554583" lon="8.9510467"><ele>417.2857142857143</ele><time>2026-04-08T15:07:40.13Z</time></trkpt><trkpt lat="45.7554" lon="8.951105"><ele>417.85714285714283</ele><time>2026-04-08T15:07:42.131Z</time></trkpt><trkpt lat="45.75535" lon="8.9511833"><ele>418.4285714285714</ele><time>2026-04-08T15:07:44.13Z</time></trkpt><trkpt lat="45.7553067" lon="8.95125"><ele>419.0</ele><time>2026-04-08T15:07:46.13Z</time></trkpt><trkpt lat="45.7552583" lon="8.9513367"><ele>418.99999999999994</ele><time>2026-04-08T15:07:49.13Z</time></trkpt><trkpt lat="45.755205" lon="8.95143"><ele>419.0</ele><time>2026-04-08T15:07:53.13Z</time></trkpt><trkpt lat="45.7551633" lon="8.951545"><ele>419.0</ele><time>2026-04-08T15:07:56.13Z</time></trkpt><trkpt lat="45.75514" lon="8.9516517"><ele>419.0</ele><time>2026-04-08T15:07:59.13Z</time></trkpt><trkpt lat="45.7550833" lon="8.951695"><ele>418.99999999999994</ele><time>2026-04-08T15:08:02.13Z</time></trkpt><trkpt lat="45.7550167" lon="8.9517567"><ele>419.0</ele><time>2026-04-08T15:08:05.131Z</time></trkpt><trkpt lat="45.754965" lon="8.9518517"><ele>418.85714285714283</ele><time>2026-04-08T15:08:09.13Z</time></trkpt><trkpt lat="45.75492" lon="8.9519317"><ele>418.7142857142857</ele><time>2026-04-08T15:08:13.129Z</time></trkpt><trkpt lat="45.754865" lon="8.9519767"><ele>418.57142857142856</ele><time>2026-04-08T15:08:45.128Z</time></trkpt><trkpt lat="45.754925" lon="8.9520133"><ele>418.42857142857144</ele><time>2026-04-08T15:08:52.13Z</time></trkpt><trkpt lat="45.7549883" lon="8.95207"><ele>418.2857142857143</ele><time>2026-04-08T15:08:55.128Z</time></trkpt><trkpt lat="45.7550617" lon="8.952085"><ele>418.1428571428571</ele><time>2026-04-08T15:08:58.127Z</time></trkpt><trkpt lat="45.755135" lon="8.9520867"><ele>418.0</ele><time>2026-04-08T15:09:01.128Z</time></trkpt><trkpt lat="45.7552167" lon="8.9521033"><ele>417.83333333333337</ele><time>2026-04-08T15:09:04.128Z</time></trkpt><trkpt lat="45.75531" lon="8.95212"><ele>417.6666666666667</ele><time>2026-04-08T15:09:07.127Z</time></trkpt><trkpt lat="45.755395" lon="8.9521183"><ele>417.5</ele><time>2026-04-08T15:09:10.127Z</time></trkpt><trkpt lat="45.7554867" lon="8.9521233"><ele>417.33333333333337</ele><time>2026-04-08T15:09:13.127Z</time></trkpt><trkpt lat="45.755575" lon="8.9520967"><ele>417.1666666666667</ele><time>2026-04-08T15:09:16.129Z</time></trkpt><trkpt lat="45.7556517" lon="8.9520517"><ele>417.0</ele><time>2026-04-08T15:09:19.128Z</time></trkpt><trkpt lat="45.75573" lon="8.95201"><ele>417.0</ele><time>2026-04-08T15:09:22.129Z</time></trkpt><trkpt lat="45.755825" lon="8.952005"><ele>417.0</ele><time>2026-04-08T15:09:25.128Z</time></trkpt><trkpt lat="45.7559083" lon="8.9519783"><ele>417.0</ele><time>2026-04-08T15:09:28.129Z</time></trkpt><trkpt lat="45.756" lon="8.9519733"><ele>417.0</ele><time>2026-04-08T15:09:31.129Z</time></trkpt><trkpt lat="45.7560733" lon="8.9519517"><ele>417.0</ele><time>2026-04-08T15:09:34.127Z</time></trkpt><trkpt lat="45.7561517" lon="8.951925"><ele>417.0</ele><time>2026-04-08T15:09:37.129Z</time></trkpt><trkpt lat="45.7562283" lon="8.9518867"><ele>416.8333333333333</ele><time>2026-04-08T15:09:40.129Z</time></trkpt><trkpt lat="45.75631" lon="8.951875"><ele>416.66666666666663</ele><time>2026-04-08T15:09:43.13Z</time></trkpt><trkpt lat="45.7563967" lon="8.951825"><ele>416.5</ele><time>2026-04-08T15:09:46.13Z</time></trkpt><trkpt lat="45.7564867" lon="8.9517917"><ele>416.3333333333333</ele><time>2026-04-08T15:09:49.129Z</time></trkpt><trkpt lat="45.7565767" lon="8.9517733"><ele>416.16666666666663</ele><time>2026-04-08T15:09:52.13Z</time></trkpt><trkpt lat="45.75664" lon="8.9517533"><ele>416.0</ele><time>2026-04-08T15:09:54.13Z</time></trkpt><trkpt lat="45.75671" lon="8.9517183"><ele>416.66666666666663</ele><time>2026-04-08T15:09:56.13Z</time></trkpt><trkpt lat="45.7567783" lon="8.951675"><ele>417.3333333333333</ele><time>2026-04-08T15:09:58.129Z</time></trkpt><trkpt lat="45.756835" lon="8.9516233"><ele>418.0</ele><time>2026-04-08T15:10:00.128Z</time></trkpt><trkpt lat="45.7569133" lon="8.9515683"><ele>418.66666666666663</ele><time>2026-04-08T15:10:03.132Z</time></trkpt><trkpt lat="45.7569917" lon="8.95151"><ele>419.3333333333333</ele><time>2026-04-08T15:10:06.128Z</time></trkpt><trkpt lat="45.7570767" lon="8.951475"><ele>420.0</ele><time>2026-04-08T15:10:09.129Z</time></trkpt><trkpt lat="45.7571683" lon="8.9514633"><ele>420.5</ele><time>2026-04-08T15:10:12.129Z</time></trkpt><trkpt lat="45.75724" lon="8.9514183"><ele>421.0</ele><time>2026-04-08T15:10:15.128Z</time></trkpt><trkpt lat="45.7573117" lon="8.9513617"><ele>421.5</ele><time>2026-04-08T15:10:18.128Z</time></trkpt><trkpt lat="45.7573733" lon="8.9513183"><ele>422.0</ele><time>2026-04-08T15:10:20.129Z</time></trkpt><trkpt lat="45.7574467" lon="8.9512633"><ele>422.5</ele><time>2026-04-08T15:10:23.127Z</time></trkpt><trkpt lat="45.7575033" lon="8.9512133"><ele>423.0</ele><time>2026-04-08T15:10:25.129Z</time></trkpt><trkpt lat="45.7575883" lon="8.95116"><ele>423.0</ele><time>2026-04-08T15:10:28.128Z</time></trkpt><trkpt lat="45.7576733" lon="8.9511233"><ele>423.0</ele><time>2026-04-08T15:10:31.129Z</time></trkpt><trkpt lat="45.757745" lon="8.9510867"><ele>423.0</ele><time>2026-04-08T15:10:33.129Z</time></trkpt><trkpt lat="45.7578233" lon="8.95106"><ele>423.0</ele><time>2026-04-08T15:10:35.129Z</time></trkpt><trkpt lat="45.757895" lon="8.951025"><ele>423.0</ele><time>2026-04-08T15:10:37.128Z</time></trkpt><trkpt lat="45.7579783" lon="8.950985"><ele>423.0</ele><time>2026-04-08T15:10:40.13Z</time></trkpt><trkpt lat="45.75804" lon="8.9509483"><ele>423.1666666666667</ele><time>2026-04-08T15:10:42.129Z</time></trkpt><trkpt lat="45.7580983" lon="8.95091"><ele>423.33333333333337</ele><time>2026-04-08T15:10:44.131Z</time></trkpt><trkpt lat="45.7581817" lon="8.950845"><ele>423.5</ele><time>2026-04-08T15:10:47.129Z</time></trkpt><trkpt lat="45.7582483" lon="8.9507917"><ele>423.6666666666667</ele><time>2026-04-08T15:10:50.13Z</time></trkpt><trkpt lat="45.7583317" lon="8.9506933"><ele>423.83333333333337</ele><time>2026-04-08T15:11:02.13Z</time></trkpt><trkpt lat="45.7583817" lon="8.9506267"><ele>424.0</ele><time>2026-04-08T15:11:05.129Z</time></trkpt><trkpt lat="45.7584517" lon="8.9505667"><ele>424.00000000000006</ele><time>2026-04-08T15:11:08.13Z</time></trkpt><trkpt lat="45.7585233" lon="8.9505017"><ele>424.0</ele><time>2026-04-08T15:11:11.13Z</time></trkpt><trkpt lat="45.758595" lon="8.9504417"><ele>424.0</ele><time>2026-04-08T15:11:14.13Z</time></trkpt><trkpt lat="45.758665" lon="8.950375"><ele>424.0</ele><time>2026-04-08T15:11:17.129Z</time></trkpt><trkpt lat="45.7587517" lon="8.9503283"><ele>424.00000000000006</ele><time>2026-04-08T15:11:20.132Z</time></trkpt><trkpt lat="45.7588433" lon="8.9502817"><ele>424.0</ele><time>2026-04-08T15:11:23.131Z</time></trkpt><trkpt lat="45.7589233" lon="8.9502617"><ele>424.00000000000006</ele><time>2026-04-08T15:11:25.131Z</time></trkpt><trkpt lat="45.75899" lon="8.9502517"><ele>424.0</ele><time>2026-04-08T15:11:27.129Z</time></trkpt><trkpt lat="45.7590783" lon="8.9502583"><ele>424.0</ele><time>2026-04-08T15:11:30.13Z</time></trkpt><trkpt lat="45.7591483" lon="8.9502617"><ele>424.0</ele><time>2026-04-08T15:11:32.13Z</time></trkpt><trkpt lat="45.75922" lon="8.9502217"><ele>424.00000000000006</ele><time>2026-04-08T15:11:34.129Z</time></trkpt><trkpt lat="45.7593183" lon="8.9502083"><ele>424.0</ele><time>2026-04-08T15:11:37.129Z</time></trkpt><trkpt lat="45.7593867" lon="8.9502067"><ele>423.1666666666667</ele><time>2026-04-08T15:11:39.132Z</time></trkpt><trkpt lat="45.7594617" lon="8.95022"><ele>422.33333333333337</ele><time>2026-04-08T15:11:41.132Z</time></trkpt><trkpt lat="45.7595217" lon="8.9502717"><ele>421.5</ele><time>2026-04-08T15:11:43.131Z</time></trkpt><trkpt lat="45.7596167" lon="8.9502983"><ele>420.66666666666663</ele><time>2026-04-08T15:11:45.13Z</time></trkpt><trkpt lat="45.759735" lon="8.9502883"><ele>419.8333333333333</ele><time>2026-04-08T15:11:47.131Z</time></trkpt><trkpt lat="45.759805" lon="8.95028"><ele>419.0</ele><time>2026-04-08T15:11:48.13Z</time></trkpt><trkpt lat="45.7598733" lon="8.9502767"><ele>418.99999999999994</ele><time>2026-04-08T15:11:49.13Z</time></trkpt><trkpt lat="45.7599433" lon="8.95027"><ele>419.0</ele><time>2026-04-08T15:11:50.13Z</time></trkpt><trkpt lat="45.7600367" lon="8.95028"><ele>419.0</ele><time>2026-04-08T15:11:52.129Z</time></trkpt><trkpt lat="45.7601" lon="8.9503017"><ele>419.0</ele><time>2026-04-08T15:11:55.13Z</time></trkpt><trkpt lat="45.760125" lon="8.9503867"><ele>418.99999999999994</ele><time>2026-04-08T15:11:58.129Z</time></trkpt><trkpt lat="45.760085" lon="8.9505083"><ele>419.0</ele><time>2026-04-08T15:12:01.13Z</time></trkpt><trkpt lat="45.7600567" lon="8.9505967"><ele>418.99999999999994</ele><time>2026-04-08T15:12:03.129Z</time></trkpt><trkpt lat="45.7600217" lon="8.950675"><ele>419.0</ele><time>2026-04-08T15:12:05.13Z</time></trkpt><trkpt lat="45.7600017" lon="8.950765"><ele>419.0</ele><time>2026-04-08T15:12:07.129Z</time></trkpt><trkpt lat="45.7599717" lon="8.95085"><ele>419.0</ele><time>2026-04-08T15:12:09.131Z</time></trkpt><trkpt lat="45.75995" lon="8.9509417"><ele>419.0</ele><time>2026-04-08T15:12:11.129Z</time></trkpt><trkpt lat="45.759925" lon="8.9510383"><ele>418.99999999999994</ele><time>2026-04-08T15:12:13.13Z</time></trkpt><trkpt lat="45.759905" lon="8.9511467"><ele>419.0</ele><time>2026-04-08T15:12:15.132Z</time></trkpt><trkpt lat="45.7598733" lon="8.9512417"><ele>419.1428571428571</ele><time>2026-04-08T15:12:17.132Z</time></trkpt><trkpt lat="45.759845" lon="8.9513233"><ele>419.2857142857143</ele><time>2026-04-08T15:12:19.13Z</time></trkpt><trkpt lat="45.759805" lon="8.9514167"><ele>419.42857142857144</ele><time>2026-04-08T15:12:22.129Z</time></trkpt><trkpt lat="45.7597567" lon="8.9515117"><ele>419.57142857142856</ele><time>2026-04-08T15:12:26.132Z</time></trkpt><trkpt lat="45.7597233" lon="8.9515883"><ele>419.7142857142857</ele><time>2026-04-08T15:12:28.129Z</time></trkpt><trkpt lat="45.7596817" lon="8.9517017"><ele>419.85714285714283</ele><time>2026-04-08T15:12:31.13Z</time></trkpt><trkpt lat="45.7596567" lon="8.951785"><ele>420.0</ele><time>2026-04-08T15:12:33.13Z</time></trkpt><trkpt lat="45.7596233" lon="8.9518717"><ele>420.2857142857143</ele><time>2026-04-08T15:12:35.13Z</time></trkpt><trkpt lat="45.7595917" lon="8.95196"><ele>420.57142857142856</ele><time>2026-04-08T15:12:37.132Z</time></trkpt><trkpt lat="45.759555" lon="8.952045"><ele>420.8571428571429</ele><time>2026-04-08T15:12:39.13Z</time></trkpt><trkpt lat="45.7595217" lon="8.9521383"><ele>421.1428571428571</ele><time>2026-04-08T15:12:41.13Z</time></trkpt><trkpt lat="45.7594917" lon="8.952235"><ele>421.42857142857144</ele><time>2026-04-08T15:12:43.132Z</time></trkpt><trkpt lat="45.7594517" lon="8.9523383"><ele>421.7142857142857</ele><time>2026-04-08T15:12:45.129Z</time></trkpt><trkpt lat="45.759415" lon="8.9524283"><ele>422.0</ele><time>2026-04-08T15:12:47.13Z</time></trkpt><trkpt lat="45.7593683" lon="8.9525367"><ele>421.99999999999994</ele><time>2026-04-08T15:12:49.132Z</time></trkpt><trkpt lat="45.7593217" lon="8.9526217"><ele>422.0</ele><time>2026-04-08T15:12:51.13Z</time></trkpt><trkpt lat="45.759265" lon="8.95269"><ele>422.0</ele><time>2026-04-08T15:12:53.13Z</time></trkpt><trkpt lat="45.7592017" lon="8.952775"><ele>422.0</ele><time>2026-04-08T15:12:55.13Z</time></trkpt><trkpt lat="45.75914" lon="8.9528367"><ele>421.99999999999994</ele><time>2026-04-08T15:12:57.13Z</time></trkpt><trkpt lat="45.75909" lon="8.9529067"><ele>422.0</ele><time>2026-04-08T15:12:59.13Z</time></trkpt><trkpt lat="45.7590217" lon="8.9529733"><ele>421.99999999999994</ele><time>2026-04-08T15:13:02.131Z</time></trkpt><trkpt lat="45.7589617" lon="8.9530417"><ele>422.0</ele><time>2026-04-08T15:14:41.128Z</time></trkpt><trkpt lat="45.7588833" lon="8.9530867"><ele>422.0</ele><time>2026-04-08T15:14:46.128Z</time></trkpt><trkpt lat="45.7588217" lon="8.95314"><ele>422.0</ele><time>2026-04-08T15:14:48.128Z</time></trkpt><trkpt lat="45.75875" lon="8.9532217"><ele>421.99999999999994</ele><time>2026-04-08T15:14:51.129Z</time></trkpt><trkpt lat="45.7586917" lon="8.953295"><ele>422.0</ele><time>2026-04-08T15:14:53.128Z</time></trkpt><trkpt lat="45.7586417" lon="8.9533767"><ele>421.16666666666663</ele><time>2026-04-08T15:14:55.129Z</time></trkpt><trkpt lat="45.7585967" lon="8.9534467"><ele>420.3333333333333</ele><time>2026-04-08T15:14:57.129Z</time></trkpt><trkpt lat="45.7585317" lon="8.953515"><ele>419.5</ele><time>2026-04-08T15:15:00.127Z</time></trkpt><trkpt lat="45.7584683" lon="8.9535883"><ele>418.66666666666663</ele><time>2026-04-08T15:15:03.128Z</time></trkpt><trkpt lat="45.7584017" lon="8.9536183"><ele>417.8333333333333</ele><time>2026-04-08T15:15:05.127Z</time></trkpt><trkpt lat="45.758335" lon="8.9536283"><ele>417.0</ele><time>2026-04-08T15:15:07.128Z</time></trkpt><trkpt lat="45.7582367" lon="8.9536233"><ele>417.0</ele><time>2026-04-08T15:15:10.127Z</time></trkpt><trkpt lat="45.7581583" lon="8.9536433"><ele>417.0</ele><time>2026-04-08T15:15:12.127Z</time></trkpt><trkpt lat="45.758085" lon="8.9536767"><ele>417.0</ele><time>2026-04-08T15:15:15.127Z</time></trkpt><trkpt lat="45.7580317" lon="8.9537267"><ele>417.0</ele><time>2026-04-08T15:15:17.127Z</time></trkpt><trkpt lat="45.7579517" lon="8.9537767"><ele>417.0</ele><time>2026-04-08T15:15:20.129Z</time></trkpt><trkpt lat="45.75788" lon="8.9537917"><ele>417.0</ele><time>2026-04-08T15:15:23.127Z</time></trkpt><trkpt lat="45.757815" lon="8.95384"><ele>417.0</ele><time>2026-04-08T15:15:25.127Z</time></trkpt><trkpt lat="45.7577333" lon="8.9538817"><ele>417.0</ele><time>2026-04-08T15:15:28.128Z</time></trkpt><trkpt lat="45.7576633" lon="8.95393"><ele>417.0</ele><time>2026-04-08T15:15:31.127Z</time></trkpt><trkpt lat="45.757605" lon="8.9539683"><ele>417.0</ele><time>2026-04-08T15:15:33.127Z</time></trkpt><trkpt lat="45.7575483" lon="8.9540233"><ele>417.0</ele><time>2026-04-08T15:15:35.128Z</time></trkpt><trkpt lat="45.7574733" lon="8.9540833"><ele>417.0</ele><time>2026-04-08T15:15:38.129Z</time></trkpt><trkpt lat="45.757405" lon="8.9541567"><ele>416.1666666666667</ele><time>2026-04-08T15:15:41.128Z</time></trkpt><trkpt lat="45.7573433" lon="8.954205"><ele>415.33333333333337</ele><time>2026-04-08T15:15:44.129Z</time></trkpt><trkpt lat="45.75729" lon="8.9542617"><ele>414.5</ele><time>2026-04-08T15:15:47.129Z</time></trkpt><trkpt lat="45.7572983" lon="8.95437"><ele>413.6666666666667</ele><time>2026-04-08T15:15:51.128Z</time></trkpt><trkpt lat="45.7573433" lon="8.9544717"><ele>412.83333333333337</ele><time>2026-04-08T15:15:55.128Z</time></trkpt><trkpt lat="45.7573217" lon="8.954565"><ele>412.0</ele><time>2026-04-08T15:15:58.13Z</time></trkpt><trkpt lat="45.7573067" lon="8.9547"><ele>412.00000000000006</ele><time>2026-04-08T15:16:01.127Z</time></trkpt><trkpt lat="45.75732" lon="8.9548133"><ele>412.0</ele><time>2026-04-08T15:16:04.127Z</time></trkpt><trkpt lat="45.75733" lon="8.9549383"><ele>412.0</ele><time>2026-04-08T15:16:06.128Z</time></trkpt><trkpt lat="45.7573333" lon="8.9550567"><ele>412.0</ele><time>2026-04-08T15:16:08.129Z</time></trkpt><trkpt lat="45.7573333" lon="8.9551633"><ele>412.00000000000006</ele><time>2026-04-08T15:16:10.129Z</time></trkpt><trkpt lat="45.7573367" lon="8.9552583"><ele>412.0</ele><time>2026-04-08T15:16:12.127Z</time></trkpt><trkpt lat="45.7573717" lon="8.9555267"><ele>411.4285714285714</ele><time>2026-04-08T15:16:32.129Z</time></trkpt><trkpt lat="45.7573817" lon="8.9556517"><ele>410.85714285714283</ele><time>2026-04-08T15:16:42.128Z</time></trkpt><trkpt lat="45.75739" lon="8.95575"><ele>410.2857142857143</ele><time>2026-04-08T15:16:46.127Z</time></trkpt><trkpt lat="45.7574317" lon="8.955845"><ele>409.71428571428567</ele><time>2026-04-08T15:16:49.128Z</time></trkpt><trkpt lat="45.7574483" lon="8.9559333"><ele>409.14285714285717</ele><time>2026-04-08T15:16:51.128Z</time></trkpt><trkpt lat="45.7574633" lon="8.9560367"><ele>408.57142857142856</ele><time>2026-04-08T15:16:53.129Z</time></trkpt><trkpt lat="45.757485" lon="8.9561333"><ele>408.0</ele><time>2026-04-08T15:16:55.129Z</time></trkpt><trkpt lat="45.7575117" lon="8.95623"><ele>407.8333333333333</ele><time>2026-04-08T15:16:57.129Z</time></trkpt><trkpt lat="45.757545" lon="8.9563467"><ele>407.66666666666663</ele><time>2026-04-08T15:17:00.129Z</time></trkpt><trkpt lat="45.7575733" lon="8.9564533"><ele>407.5</ele><time>2026-04-08T15:17:03.128Z</time></trkpt><trkpt lat="45.7576017" lon="8.9565733"><ele>407.3333333333333</ele><time>2026-04-08T15:17:06.129Z</time></trkpt><trkpt lat="45.75763" lon="8.9567033"><ele>407.16666666666663</ele><time>2026-04-08T15:17:09.128Z</time></trkpt><trkpt lat="45.757655" lon="8.956825"><ele>407.0</ele><time>2026-04-08T15:17:12.13Z</time></trkpt><trkpt lat="45.7576833" lon="8.9569517"><ele>407.16666666666663</ele><time>2026-04-08T15:17:15.129Z</time></trkpt><trkpt lat="45.7577033" lon="8.9570783"><ele>407.3333333333333</ele><time>2026-04-08T15:17:18.13Z</time></trkpt><trkpt lat="45.7577167" lon="8.9572017"><ele>407.5</ele><time>2026-04-08T15:17:21.128Z</time></trkpt><trkpt lat="45.7577283" lon="8.9573283"><ele>407.66666666666663</ele><time>2026-04-08T15:17:24.13Z</time></trkpt><trkpt lat="45.7577317" lon="8.9574583"><ele>407.8333333333333</ele><time>2026-04-08T15:17:27.13Z</time></trkpt><trkpt lat="45.757745" lon="8.957585"><ele>408.0</ele><time>2026-04-08T15:17:30.13Z</time></trkpt><trkpt lat="45.757775" lon="8.9577067"><ele>408.0</ele><time>2026-04-08T15:17:33.128Z</time></trkpt><trkpt lat="45.75779" lon="8.9578383"><ele>408.0</ele><time>2026-04-08T15:17:36.128Z</time></trkpt><trkpt lat="45.7578117" lon="8.9579283"><ele>408.0</ele><time>2026-04-08T15:17:38.129Z</time></trkpt><trkpt lat="45.7578433" lon="8.9580267"><ele>408.0</ele><time>2026-04-08T15:17:41.127Z</time></trkpt><trkpt lat="45.7579233" lon="8.9580783"><ele>408.0</ele><time>2026-04-08T15:17:55.129Z</time></trkpt><trkpt lat="45.7580017" lon="8.958045"><ele>408.0</ele><time>2026-04-08T15:17:58.129Z</time></trkpt><trkpt lat="45.7580717" lon="8.9580133"><ele>408.0</ele><time>2026-04-08T15:18:00.129Z</time></trkpt><trkpt lat="45.75816" lon="8.9579717"><ele>408.0</ele><time>2026-04-08T15:18:02.129Z</time></trkpt><trkpt lat="45.75824" lon="8.9579233"><ele>408.0</ele><time>2026-04-08T15:18:04.13Z</time></trkpt><trkpt lat="45.7583133" lon="8.9578717"><ele>408.0</ele><time>2026-04-08T15:18:06.129Z</time></trkpt><trkpt lat="45.7583933" lon="8.9578133"><ele>408.0</ele><time>2026-04-08T15:18:08.13Z</time></trkpt><trkpt lat="45.7584783" lon="8.9577617"><ele>408.0</ele><time>2026-04-08T15:18:10.129Z</time></trkpt><trkpt lat="45.7585683" lon="8.957705"><ele>407.79999999999995</ele><time>2026-04-08T15:18:12.13Z</time></trkpt><trkpt lat="45.7586417" lon="8.9576617"><ele>407.6</ele><time>2026-04-08T15:18:14.13Z</time></trkpt><trkpt lat="45.7587183" lon="8.9576267"><ele>407.4</ele><time>2026-04-08T15:18:16.13Z</time></trkpt><trkpt lat="45.7588033" lon="8.9575667"><ele>407.20000000000005</ele><time>2026-04-08T15:18:18.129Z</time></trkpt><trkpt lat="45.758905" lon="8.9574983"><ele>407.0</ele><time>2026-04-08T15:18:21.129Z</time></trkpt><trkpt lat="45.75899" lon="8.9574483"><ele>406.99999999999994</ele><time>2026-04-08T15:18:23.129Z</time></trkpt><trkpt lat="45.75907" lon="8.9575067"><ele>407.0</ele><time>2026-04-08T15:18:26.129Z</time></trkpt><trkpt lat="45.7591117" lon="8.957605"><ele>407.0</ele><time>2026-04-08T15:18:28.13Z</time></trkpt><trkpt lat="45.7591567" lon="8.9577217"><ele>407.0</ele><time>2026-04-08T15:18:30.129Z</time></trkpt><trkpt lat="45.759185" lon="8.9578283"><ele>406.99999999999994</ele><time>2026-04-08T15:18:32.13Z</time></trkpt><trkpt lat="45.7592233" lon="8.9579383"><ele>407.0</ele><time>2026-04-08T15:18:34.13Z</time></trkpt><trkpt lat="45.759255" lon="8.9580483"><ele>406.99999999999994</ele><time>2026-04-08T15:18:36.129Z</time></trkpt><trkpt lat="45.759275" lon="8.9581717"><ele>407.0</ele><time>2026-04-08T15:18:38.129Z</time></trkpt><trkpt lat="45.7592833" lon="8.9583067"><ele>407.0</ele><time>2026-04-08T15:18:40.129Z</time></trkpt><trkpt lat="45.759275" lon="8.9584233"><ele>407.0</ele><time>2026-04-08T15:18:42.129Z</time></trkpt><trkpt lat="45.759245" lon="8.9585133"><ele>406.99999999999994</ele><time>2026-04-08T15:18:44.13Z</time></trkpt><trkpt lat="45.7591883" lon="8.95857"><ele>407.0</ele><time>2026-04-08T15:18:46.13Z</time></trkpt><trkpt lat="45.7591067" lon="8.9586383"><ele>406.8333333333333</ele><time>2026-04-08T15:18:48.129Z</time></trkpt><trkpt lat="45.7590317" lon="8.9586217"><ele>406.66666666666663</ele><time>2026-04-08T15:18:50.13Z</time></trkpt><trkpt lat="45.7589367" lon="8.958655"><ele>406.5</ele><time>2026-04-08T15:18:52.129Z</time></trkpt><trkpt lat="45.75885" lon="8.9587"><ele>406.33333333333337</ele><time>2026-04-08T15:18:54.129Z</time></trkpt><trkpt lat="45.7587833" lon="8.9586867"><ele>406.1666666666667</ele><time>2026-04-08T15:18:56.131Z</time></trkpt><trkpt lat="45.7586917" lon="8.958755"><ele>406.0</ele><time>2026-04-08T15:18:59.129Z</time></trkpt><trkpt lat="45.7586267" lon="8.9588167"><ele>406.00000000000006</ele><time>2026-04-08T15:19:01.129Z</time></trkpt><trkpt lat="45.7585733" lon="8.9588767"><ele>406.0</ele><time>2026-04-08T15:19:03.129Z</time></trkpt><trkpt lat="45.7585183" lon="8.9589667"><ele>406.0</ele><time>2026-04-08T15:19:05.13Z</time></trkpt><trkpt lat="45.7584633" lon="8.9590833"><ele>406.0</ele><time>2026-04-08T15:19:07.13Z</time></trkpt><trkpt lat="45.75841" lon="8.959215"><ele>406.00000000000006</ele><time>2026-04-08T15:19:09.129Z</time></trkpt><trkpt lat="45.7583767" lon="8.9592917"><ele>406.0</ele><time>2026-04-08T15:19:11.129Z</time></trkpt><trkpt lat="45.7583217" lon="8.9593883"><ele>406.33333333333337</ele><time>2026-04-08T15:19:13.129Z</time></trkpt><trkpt lat="45.7582617" lon="8.959465"><ele>406.6666666666667</ele><time>2026-04-08T15:19:16.131Z</time></trkpt><trkpt lat="45.7582033" lon="8.9595467"><ele>407.0</ele><time>2026-04-08T15:19:18.129Z</time></trkpt><trkpt lat="45.7581383" lon="8.9596183"><ele>407.33333333333337</ele><time>2026-04-08T15:19:20.131Z</time></trkpt><trkpt lat="45.75807" lon="8.9597167"><ele>407.6666666666667</ele><time>2026-04-08T15:19:22.128Z</time></trkpt><trkpt lat="45.7580083" lon="8.95984"><ele>408.0</ele><time>2026-04-08T15:19:24.127Z</time></trkpt><trkpt lat="45.7579217" lon="8.9599583"><ele>407.4</ele><time>2026-04-08T15:19:26.129Z</time></trkpt><trkpt lat="45.75784" lon="8.9600467"><ele>406.79999999999995</ele><time>2026-04-08T15:19:28.129Z</time></trkpt><trkpt lat="45.757765" lon="8.96012"><ele>406.2</ele><time>2026-04-08T15:19:30.128Z</time></trkpt><trkpt lat="45.7576867" lon="8.9601933"><ele>405.6</ele><time>2026-04-08T15:19:32.129Z</time></trkpt><trkpt lat="45.7576383" lon="8.9602617"><ele>405.0</ele><time>2026-04-08T15:19:33.128Z</time></trkpt><trkpt lat="45.757565" lon="8.960365"><ele>405.0</ele><time>2026-04-08T15:19:35.128Z</time></trkpt><trkpt lat="45.7575183" lon="8.9604283"><ele>405.0</ele><time>2026-04-08T15:19:36.13Z</time></trkpt><trkpt lat="45.7574367" lon="8.9605517"><ele>405.0</ele><time>2026-04-08T15:19:38.128Z</time></trkpt><trkpt lat="45.7573667" lon="8.9606533"><ele>405.0</ele><time>2026-04-08T15:19:40.128Z</time></trkpt><trkpt lat="45.757295" lon="8.9607417"><ele>405.0</ele><time>2026-04-08T15:19:42.129Z</time></trkpt><trkpt lat="45.7572117" lon="8.9607917"><ele>405.0</ele><time>2026-04-08T15:19:44.129Z</time></trkpt><trkpt lat="45.757135" lon="8.9608617"><ele>405.0</ele><time>2026-04-08T15:19:46.129Z</time></trkpt><trkpt lat="45.7570367" lon="8.9609383"><ele>405.0</ele><time>2026-04-08T15:19:48.129Z</time></trkpt><trkpt lat="45.7569417" lon="8.9609867"><ele>405.0</ele><time>2026-04-08T15:19:50.129Z</time></trkpt><trkpt lat="45.75686" lon="8.9610767"><ele>405.0</ele><time>2026-04-08T15:19:52.129Z</time></trkpt><trkpt lat="45.7567767" lon="8.9611667"><ele>404.4</ele><time>2026-04-08T15:19:54.13Z</time></trkpt><trkpt lat="45.7566867" lon="8.9612583"><ele>403.8</ele><time>2026-04-08T15:19:56.132Z</time></trkpt><trkpt lat="45.7566" lon="8.9613567"><ele>403.20000000000005</ele><time>2026-04-08T15:19:58.128Z</time></trkpt><trkpt lat="45.75653" lon="8.9614633"><ele>402.6</ele><time>2026-04-08T15:20:00.129Z</time></trkpt><trkpt lat="45.75647" lon="8.9615517"><ele>402.0</ele><time>2026-04-08T15:20:02.13Z</time></trkpt><trkpt lat="45.7563933" lon="8.96162"><ele>402.0</ele><time>2026-04-08T15:20:04.131Z</time></trkpt><trkpt lat="45.756325" lon="8.9616867"><ele>402.0</ele><time>2026-04-08T15:20:06.128Z</time></trkpt><trkpt lat="45.7562383" lon="8.961775"><ele>402.0</ele><time>2026-04-08T15:20:08.129Z</time></trkpt><trkpt lat="45.7561733" lon="8.9618433"><ele>402.0</ele><time>2026-04-08T15:20:10.128Z</time></trkpt><trkpt lat="45.7561133" lon="8.9619017"><ele>402.0</ele><time>2026-04-08T15:20:12.129Z</time></trkpt><trkpt lat="45.7560533" lon="8.9619867"><ele>402.0</ele><time>2026-04-08T15:20:14.129Z</time></trkpt><trkpt lat="45.7560067" lon="8.9620783"><ele>401.4285714285714</ele><time>2026-04-08T15:20:16.129Z</time></trkpt><trkpt lat="45.7559617" lon="8.9621433"><ele>400.8571428571429</ele><time>2026-04-08T15:20:18.129Z</time></trkpt><trkpt lat="45.7558983" lon="8.962185"><ele>400.2857142857143</ele><time>2026-04-08T15:20:20.13Z</time></trkpt><trkpt lat="45.75583" lon="8.9621983"><ele>399.71428571428567</ele><time>2026-04-08T15:20:22.129Z</time></trkpt><trkpt lat="45.7557617" lon="8.962185"><ele>399.1428571428571</ele><time>2026-04-08T15:20:24.129Z</time></trkpt><trkpt lat="45.7556933" lon="8.96217"><ele>398.57142857142856</ele><time>2026-04-08T15:20:26.131Z</time></trkpt><trkpt lat="45.755625" lon="8.9621433"><ele>398.0</ele><time>2026-04-08T15:20:28.129Z</time></trkpt><trkpt lat="45.7555433" lon="8.9620733"><ele>397.99999999999994</ele><time>2026-04-08T15:20:31.128Z</time></trkpt><trkpt lat="45.75548" lon="8.962015"><ele>398.0</ele><time>2026-04-08T15:20:33.128Z</time></trkpt><trkpt lat="45.75541" lon="8.9619667"><ele>398.0</ele><time>2026-04-08T15:20:35.128Z</time></trkpt><trkpt lat="45.755355" lon="8.961905"><ele>398.0</ele><time>2026-04-08T15:20:37.128Z</time></trkpt><trkpt lat="45.75522" lon="8.961855"><ele>397.99999999999994</ele><time>2026-04-08T15:20:57.129Z</time></trkpt><trkpt lat="45.7551533" lon="8.9618067"><ele>398.0</ele><time>2026-04-08T15:20:59.127Z</time></trkpt><trkpt lat="45.7550833" lon="8.9617717"><ele>397.8333333333333</ele><time>2026-04-08T15:21:01.127Z</time></trkpt><trkpt lat="45.755" lon="8.9617417"><ele>397.66666666666663</ele><time>2026-04-08T15:21:03.128Z</time></trkpt><trkpt lat="45.754905" lon="8.961725"><ele>397.5</ele><time>2026-04-08T15:21:05.13Z</time></trkpt><trkpt lat="45.7548133" lon="8.961695"><ele>397.33333333333337</ele><time>2026-04-08T15:21:07.129Z</time></trkpt><trkpt lat="45.7547333" lon="8.961685"><ele>397.1666666666667</ele><time>2026-04-08T15:21:09.128Z</time></trkpt><trkpt lat="45.754665" lon="8.9617333"><ele>397.0</ele><time>2026-04-08T15:21:11.129Z</time></trkpt><trkpt lat="45.75461" lon="8.9618"><ele>397.0</ele><time>2026-04-08T15:21:13.128Z</time></trkpt><trkpt lat="45.7545517" lon="8.9618683"><ele>397.0</ele><time>2026-04-08T15:21:15.128Z</time></trkpt><trkpt lat="45.75448" lon="8.961925"><ele>397.0</ele><time>2026-04-08T15:21:17.127Z</time></trkpt><trkpt lat="45.754415" lon="8.9619683"><ele>397.0</ele><time>2026-04-08T15:21:19.128Z</time></trkpt><trkpt lat="45.7543517" lon="8.9620083"><ele>397.0</ele><time>2026-04-08T15:21:21.127Z</time></trkpt><trkpt lat="45.754285" lon="8.96204"><ele>397.0</ele><time>2026-04-08T15:21:23.127Z</time></trkpt><trkpt lat="45.75421" lon="8.9620833"><ele>397.0</ele><time>2026-04-08T15:21:25.128Z</time></trkpt><trkpt lat="45.75415" lon="8.96216"><ele>396.7142857142857</ele><time>2026-04-08T15:21:27.128Z</time></trkpt><trkpt lat="45.7540967" lon="8.9622483"><ele>396.42857142857144</ele><time>2026-04-08T15:21:29.127Z</time></trkpt><trkpt lat="45.754045" lon="8.962325"><ele>396.1428571428571</ele><time>2026-04-08T15:21:31.127Z</time></trkpt><trkpt lat="45.7539867" lon="8.9623933"><ele>395.8571428571429</ele><time>2026-04-08T15:21:33.127Z</time></trkpt><trkpt lat="45.7539367" lon="8.9624617"><ele>395.5714285714286</ele><time>2026-04-08T15:21:35.128Z</time></trkpt><trkpt lat="45.75389" lon="8.9625267"><ele>395.2857142857143</ele><time>2026-04-08T15:21:37.128Z</time></trkpt><trkpt lat="45.7538217" lon="8.962595"><ele>395.0</ele><time>2026-04-08T15:21:39.127Z</time></trkpt><trkpt lat="45.7537583" lon="8.9626967"><ele>395.0</ele><time>2026-04-08T15:21:41.128Z</time></trkpt><trkpt lat="45.75371" lon="8.9628283"><ele>395.0</ele><time>2026-04-08T15:21:43.127Z</time></trkpt><trkpt lat="45.7536767" lon="8.9629517"><ele>395.0</ele><time>2026-04-08T15:21:45.127Z</time></trkpt><trkpt lat="45.7536467" lon="8.96308"><ele>395.0</ele><time>2026-04-08T15:21:47.127Z</time></trkpt><trkpt lat="45.7536383" lon="8.9631883"><ele>395.0</ele><time>2026-04-08T15:21:49.127Z</time></trkpt><trkpt lat="45.75364" lon="8.96334"><ele>394.6</ele><time>2026-04-08T15:21:51.127Z</time></trkpt><trkpt lat="45.75366" lon="8.9634967"><ele>394.2</ele><time>2026-04-08T15:21:53.128Z</time></trkpt><trkpt lat="45.7536717" lon="8.96364"><ele>393.79999999999995</ele><time>2026-04-08T15:21:55.129Z</time></trkpt><trkpt lat="45.75369" lon="8.9637683"><ele>393.4</ele><time>2026-04-08T15:21:57.127Z</time></trkpt><trkpt lat="45.75372" lon="8.9639267"><ele>393.0</ele><time>2026-04-08T15:21:59.127Z</time></trkpt><trkpt lat="45.7537583" lon="8.96409"><ele>392.0</ele><time>2026-04-08T15:22:01.127Z</time></trkpt><trkpt lat="45.7538" lon="8.96424"><ele>391.0</ele><time>2026-04-08T15:22:03.127Z</time></trkpt><trkpt lat="45.75386" lon="8.96437"><ele>390.0</ele><time>2026-04-08T15:22:05.127Z</time></trkpt><trkpt lat="45.753915" lon="8.964495"><ele>389.0</ele><time>2026-04-08T15:22:07.127Z</time></trkpt><trkpt lat="45.7539717" lon="8.9645967"><ele>388.0</ele><time>2026-04-08T15:22:09.127Z</time></trkpt><trkpt lat="45.7539967" lon="8.9646917"><ele>388.00000000000006</ele><time>2026-04-08T15:22:11.128Z</time></trkpt><trkpt lat="45.75401" lon="8.9648067"><ele>388.0</ele><time>2026-04-08T15:22:13.128Z</time></trkpt><trkpt lat="45.7540383" lon="8.964955"><ele>388.0</ele><time>2026-04-08T15:22:15.128Z</time></trkpt><trkpt lat="45.7540617" lon="8.9650717"><ele>388.0</ele><time>2026-04-08T15:22:17.128Z</time></trkpt><trkpt lat="45.7540883" lon="8.9651883"><ele>388.00000000000006</ele><time>2026-04-08T15:22:19.129Z</time></trkpt><trkpt lat="45.7541133" lon="8.9653083"><ele>388.0</ele><time>2026-04-08T15:22:21.128Z</time></trkpt><trkpt lat="45.7541367" lon="8.9654367"><ele>386.59999999999997</ele><time>2026-04-08T15:22:23.127Z</time></trkpt><trkpt lat="45.7541533" lon="8.9655817"><ele>385.2</ele><time>2026-04-08T15:22:25.127Z</time></trkpt><trkpt lat="45.7541783" lon="8.96572"><ele>383.8</ele><time>2026-04-08T15:22:27.127Z</time></trkpt><trkpt lat="45.7542167" lon="8.9658583"><ele>382.4</ele><time>2026-04-08T15:22:29.128Z</time></trkpt><trkpt lat="45.75426" lon="8.9659683"><ele>381.0</ele><time>2026-04-08T15:22:31.127Z</time></trkpt><trkpt lat="45.7542817" lon="8.9661"><ele>381.0</ele><time>2026-04-08T15:22:33.128Z</time></trkpt><trkpt lat="45.7543083" lon="8.9662"><ele>381.0</ele><time>2026-04-08T15:22:35.128Z</time></trkpt><trkpt lat="45.75439" lon="8.9661967"><ele>381.0</ele><time>2026-04-08T15:22:39.128Z</time></trkpt><trkpt lat="45.7544217" lon="8.9661083"><ele>381.0</ele><time>2026-04-08T15:22:44.129Z</time></trkpt><trkpt lat="45.7544767" lon="8.9660267"><ele>381.0</ele><time>2026-04-08T15:22:50.13Z</time></trkpt><trkpt lat="45.7545283" lon="8.9659533"><ele>381.0</ele><time>2026-04-08T15:22:54.129Z</time></trkpt><trkpt lat="45.7545817" lon="8.9658767"><ele>381.2857142857143</ele><time>2026-04-08T15:22:58.129Z</time></trkpt><trkpt lat="45.7546417" lon="8.9658067"><ele>381.5714285714286</ele><time>2026-04-08T15:23:02.129Z</time></trkpt><trkpt lat="45.7546917" lon="8.9657417"><ele>381.8571428571429</ele><time>2026-04-08T15:23:06.129Z</time></trkpt><trkpt lat="45.7547333" lon="8.96567"><ele>382.1428571428571</ele><time>2026-04-08T15:23:10.129Z</time></trkpt><trkpt lat="45.754775" lon="8.965595"><ele>382.42857142857144</ele><time>2026-04-08T15:23:14.128Z</time></trkpt><trkpt lat="45.7548183" lon="8.9655217"><ele>382.7142857142857</ele><time>2026-04-08T15:23:17.127Z</time></trkpt><trkpt lat="45.7548667" lon="8.96543"><ele>383.0</ele><time>2026-04-08T15:23:21.127Z</time></trkpt><trkpt lat="45.7549133" lon="8.9653567"><ele>383.0</ele><time>2026-04-08T15:23:25.128Z</time></trkpt><trkpt lat="45.7549567" lon="8.965285"><ele>383.0</ele><time>2026-04-08T15:23:28.129Z</time></trkpt><trkpt lat="45.755005" lon="8.9652217"><ele>383.0</ele><time>2026-04-08T15:23:32.128Z</time></trkpt><trkpt lat="45.7550367" lon="8.9651417"><ele>383.0</ele><time>2026-04-08T15:23:36.129Z</time></trkpt><trkpt lat="45.7550983" lon="8.9651133"><ele>383.0</ele><time>2026-04-08T15:23:43.13Z</time></trkpt><trkpt lat="45.7551517" lon="8.965205"><ele>383.0</ele><time>2026-04-08T15:23:47.133Z</time></trkpt><trkpt lat="45.7552" lon="8.965285"><ele>383.0</ele><time>2026-04-08T15:23:50.129Z</time></trkpt><trkpt lat="45.7552533" lon="8.9653333"><ele>383.2</ele><time>2026-04-08T15:23:53.128Z</time></trkpt><trkpt lat="45.7553183" lon="8.9653917"><ele>383.4</ele><time>2026-04-08T15:23:58.129Z</time></trkpt><trkpt lat="45.7554733" lon="8.965435"><ele>383.59999999999997</ele><time>2026-04-08T15:24:27.129Z</time></trkpt><trkpt lat="45.7555333" lon="8.9654"><ele>383.79999999999995</ele><time>2026-04-08T15:24:32.129Z</time></trkpt><trkpt lat="45.7556" lon="8.9653533"><ele>384.0</ele><time>2026-04-08T15:24:39.13Z</time></trkpt><trkpt lat="45.7556767" lon="8.965335"><ele>383.99999999999994</ele><time>2026-04-08T15:24:48.129Z</time></trkpt><trkpt lat="45.755755" lon="8.9653267"><ele>384.0</ele><time>2026-04-08T15:24:54.131Z</time></trkpt><trkpt lat="45.755825" lon="8.9653183"><ele>384.0</ele><time>2026-04-08T15:24:59.131Z</time></trkpt><trkpt lat="45.7559067" lon="8.9652967"><ele>384.0</ele><time>2026-04-08T15:25:04.129Z</time></trkpt><trkpt lat="45.7559683" lon="8.9652567"><ele>384.0</ele><time>2026-04-08T15:25:08.138Z</time></trkpt><trkpt lat="45.7560317" lon="8.9651983"><ele>383.99999999999994</ele><time>2026-04-08T15:25:12.131Z</time></trkpt><trkpt lat="45.756085" lon="8.965145"><ele>384.0</ele><time>2026-04-08T15:25:15.13Z</time></trkpt><trkpt lat="45.7561333" lon="8.965075"><ele>384.5</ele><time>2026-04-08T15:25:18.129Z</time></trkpt><trkpt lat="45.7562" lon="8.964985"><ele>385.0</ele><time>2026-04-08T15:25:21.13Z</time></trkpt><trkpt lat="45.75626" lon="8.9649267"><ele>385.5</ele><time>2026-04-08T15:25:23.129Z</time></trkpt><trkpt lat="45.7563083" lon="8.9648667"><ele>386.0</ele><time>2026-04-08T15:25:25.131Z</time></trkpt><trkpt lat="45.75638" lon="8.96478"><ele>386.5</ele><time>2026-04-08T15:25:28.13Z</time></trkpt><trkpt lat="45.7564433" lon="8.9647333"><ele>387.0</ele><time>2026-04-08T15:25:31.137Z</time></trkpt><trkpt lat="45.7565167" lon="8.9646933"><ele>387.0</ele><time>2026-04-08T15:25:35.131Z</time></trkpt><trkpt lat="45.75659" lon="8.9646633"><ele>387.0</ele><time>2026-04-08T15:25:39.131Z</time></trkpt><trkpt lat="45.7566733" lon="8.96464"><ele>387.0</ele><time>2026-04-08T15:25:43.13Z</time></trkpt><trkpt lat="45.75675" lon="8.96467"><ele>387.0</ele><time>2026-04-08T15:25:48.13Z</time></trkpt><trkpt lat="45.756825" lon="8.9647767"><ele>387.0</ele><time>2026-04-08T15:25:54.129Z</time></trkpt><trkpt lat="45.7568483" lon="8.9648617"><ele>387.0</ele><time>2026-04-08T15:25:57.13Z</time></trkpt><trkpt lat="45.7568933" lon="8.964955"><ele>387.42857142857144</ele><time>2026-04-08T15:26:02.13Z</time></trkpt><trkpt lat="45.7569167" lon="8.9650417"><ele>387.8571428571429</ele><time>2026-04-08T15:26:06.13Z</time></trkpt><trkpt lat="45.75695" lon="8.96512"><ele>388.2857142857143</ele><time>2026-04-08T15:26:10.131Z</time></trkpt><trkpt lat="45.7569717" lon="8.9652117"><ele>388.7142857142857</ele><time>2026-04-08T15:26:15.129Z</time></trkpt><trkpt lat="45.756995" lon="8.9652967"><ele>389.1428571428571</ele><time>2026-04-08T15:26:20.13Z</time></trkpt><trkpt lat="45.7570033" lon="8.96539"><ele>389.57142857142856</ele><time>2026-04-08T15:26:25.127Z</time></trkpt><trkpt lat="45.7570783" lon="8.9654017"><ele>390.0</ele><time>2026-04-08T15:26:31.13Z</time></trkpt><trkpt lat="45.7571517" lon="8.9653733"><ele>390.0</ele><time>2026-04-08T15:26:35.13Z</time></trkpt><trkpt lat="45.75722" lon="8.9654217"><ele>390.0</ele><time>2026-04-08T15:26:39.129Z</time></trkpt><trkpt lat="45.7572683" lon="8.965505"><ele>390.0</ele><time>2026-04-08T15:26:43.128Z</time></trkpt><trkpt lat="45.7573433" lon="8.9655"><ele>390.0</ele><time>2026-04-08T15:26:47.13Z</time></trkpt><trkpt lat="45.7573983" lon="8.9654517"><ele>390.0</ele><time>2026-04-08T15:26:50.13Z</time></trkpt><trkpt lat="45.7574583" lon="8.9654017"><ele>390.0</ele><time>2026-04-08T15:26:53.13Z</time></trkpt><trkpt lat="45.7575083" lon="8.965335"><ele>390.0</ele><time>2026-04-08T15:26:56.13Z</time></trkpt><trkpt lat="45.757555" lon="8.96526"><ele>390.0</ele><time>2026-04-08T15:26:59.129Z</time></trkpt><trkpt lat="45.7576233" lon="8.9652017"><ele>390.0</ele><time>2026-04-08T15:27:02.13Z</time></trkpt><trkpt lat="45.7576817" lon="8.9651617"><ele>390.0</ele><time>2026-04-08T15:27:05.13Z</time></trkpt><trkpt lat="45.7577483" lon="8.965195"><ele>390.0</ele><time>2026-04-08T15:27:09.129Z</time></trkpt><trkpt lat="45.7577833" lon="8.9652717"><ele>390.0</ele><time>2026-04-08T15:27:12.131Z</time></trkpt><trkpt lat="45.7577833" lon="8.9654833"><ele>390.0</ele><time>2026-04-08T15:27:21.13Z</time></trkpt><trkpt lat="45.7577683" lon="8.9655817"><ele>389.3333333333333</ele><time>2026-04-08T15:27:24.13Z</time></trkpt><trkpt lat="45.7577567" lon="8.9656983"><ele>388.66666666666663</ele><time>2026-04-08T15:27:27.13Z</time></trkpt><trkpt lat="45.7577483" lon="8.9658117"><ele>388.0</ele><time>2026-04-08T15:27:30.129Z</time></trkpt><trkpt lat="45.7577367" lon="8.965945"><ele>387.3333333333333</ele><time>2026-04-08T15:27:33.127Z</time></trkpt><trkpt lat="45.75772" lon="8.9660767"><ele>386.66666666666663</ele><time>2026-04-08T15:27:36.131Z</time></trkpt><trkpt lat="45.75771" lon="8.9661817"><ele>386.0</ele><time>2026-04-08T15:27:38.129Z</time></trkpt><trkpt lat="45.7577" lon="8.966285"><ele>385.49999999999994</ele><time>2026-04-08T15:27:40.13Z</time></trkpt><trkpt lat="45.7576917" lon="8.96638"><ele>385.0</ele><time>2026-04-08T15:27:42.129Z</time></trkpt><trkpt lat="45.75762" lon="8.9664267"><ele>384.5</ele><time>2026-04-08T15:27:45.128Z</time></trkpt><trkpt lat="45.7575317" lon="8.96645"><ele>384.0</ele><time>2026-04-08T15:27:48.129Z</time></trkpt><trkpt lat="45.7574767" lon="8.96651"><ele>383.5</ele><time>2026-04-08T15:27:50.131Z</time></trkpt><trkpt lat="45.7574383" lon="8.9665983"><ele>383.0</ele><time>2026-04-08T15:27:52.13Z</time></trkpt><trkpt lat="45.7573817" lon="8.9666967"><ele>382.5</ele><time>2026-04-08T15:27:55.129Z</time></trkpt><trkpt lat="45.757375" lon="8.9668167"><ele>382.0</ele><time>2026-04-08T15:28:04.129Z</time></trkpt><trkpt lat="45.7574583" lon="8.9668767"><ele>381.5</ele><time>2026-04-08T15:28:07.13Z</time></trkpt><trkpt lat="45.7575283" lon="8.9668833"><ele>381.0</ele><time>2026-04-08T15:28:10.129Z</time></trkpt><trkpt lat="45.7575983" lon="8.9669233"><ele>380.5</ele><time>2026-04-08T15:28:13.129Z</time></trkpt><trkpt lat="45.7576483" lon="8.9670283"><ele>380.0</ele><time>2026-04-08T15:28:16.127Z</time></trkpt><trkpt lat="45.7576867" lon="8.9671267"><ele>380.0</ele><time>2026-04-08T15:28:19.128Z</time></trkpt><trkpt lat="45.75769" lon="8.9672233"><ele>380.0</ele><time>2026-04-08T15:28:21.129Z</time></trkpt><trkpt lat="45.757695" lon="8.9673317"><ele>380.0</ele><time>2026-04-08T15:28:23.131Z</time></trkpt><trkpt lat="45.7577067" lon="8.96745"><ele>380.0</ele><time>2026-04-08T15:28:25.129Z</time></trkpt><trkpt lat="45.7577067" lon="8.9675817"><ele>380.0</ele><time>2026-04-08T15:28:27.129Z</time></trkpt><trkpt lat="45.7577067" lon="8.96771"><ele>380.0</ele><time>2026-04-08T15:28:29.129Z</time></trkpt><trkpt lat="45.7577083" lon="8.96784"><ele>379.6</ele><time>2026-04-08T15:28:31.128Z</time></trkpt><trkpt lat="45.7577133" lon="8.9679733"><ele>379.2</ele><time>2026-04-08T15:28:33.129Z</time></trkpt><trkpt lat="45.7577217" lon="8.9681117"><ele>378.79999999999995</ele><time>2026-04-08T15:28:35.129Z</time></trkpt><trkpt lat="45.757735" lon="8.9682417"><ele>378.4</ele><time>2026-04-08T15:28:37.129Z</time></trkpt><trkpt lat="45.7577367" lon="8.96837"><ele>378.0</ele><time>2026-04-08T15:28:39.129Z</time></trkpt><trkpt lat="45.757765" lon="8.9684883"><ele>377.1666666666667</ele><time>2026-04-08T15:28:41.128Z</time></trkpt><trkpt lat="45.7578317" lon="8.9685367"><ele>376.3333333333333</ele><time>2026-04-08T15:28:43.129Z</time></trkpt><trkpt lat="45.7579117" lon="8.968555"><ele>375.5</ele><time>2026-04-08T15:28:45.13Z</time></trkpt><trkpt lat="45.757995" lon="8.9685783"><ele>374.66666666666663</ele><time>2026-04-08T15:28:47.131Z</time></trkpt><trkpt lat="45.75808" lon="8.9686"><ele>373.8333333333333</ele><time>2026-04-08T15:28:49.13Z</time></trkpt><trkpt lat="45.758165" lon="8.9686083"><ele>373.0</ele><time>2026-04-08T15:28:51.13Z</time></trkpt><trkpt lat="45.75825" lon="8.9686083"><ele>373.0</ele><time>2026-04-08T15:28:53.13Z</time></trkpt><trkpt lat="45.758335" lon="8.9686033"><ele>373.0</ele><time>2026-04-08T15:28:55.129Z</time></trkpt><trkpt lat="45.7584117" lon="8.9686117"><ele>373.0</ele><time>2026-04-08T15:28:57.13Z</time></trkpt><trkpt lat="45.7584933" lon="8.968605"><ele>373.0</ele><time>2026-04-08T15:28:59.129Z</time></trkpt><trkpt lat="45.7585717" lon="8.96858"><ele>373.0</ele><time>2026-04-08T15:29:01.129Z</time></trkpt><trkpt lat="45.7586567" lon="8.9685517"><ele>373.0</ele><time>2026-04-08T15:29:03.13Z</time></trkpt><trkpt lat="45.7587367" lon="8.9685183"><ele>373.7142857142857</ele><time>2026-04-08T15:29:05.129Z</time></trkpt><trkpt lat="45.7588133" lon="8.9684967"><ele>374.42857142857144</ele><time>2026-04-08T15:29:07.131Z</time></trkpt><trkpt lat="45.7588867" lon="8.9684583"><ele>375.1428571428571</ele><time>2026-04-08T15:29:09.131Z</time></trkpt><trkpt lat="45.7589567" lon="8.9684183"><ele>375.8571428571429</ele><time>2026-04-08T15:29:11.129Z</time></trkpt><trkpt lat="45.7590283" lon="8.9683867"><ele>376.57142857142856</ele><time>2026-04-08T15:29:13.129Z</time></trkpt><trkpt lat="45.7590967" lon="8.968355"><ele>377.2857142857143</ele><time>2026-04-08T15:29:15.129Z</time></trkpt><trkpt lat="45.7591633" lon="8.968325"><ele>378.0</ele><time>2026-04-08T15:29:17.13Z</time></trkpt><trkpt lat="45.7592283" lon="8.968285"><ele>378.42857142857144</ele><time>2026-04-08T15:29:19.131Z</time></trkpt><trkpt lat="45.7592933" lon="8.9682533"><ele>378.8571428571429</ele><time>2026-04-08T15:29:21.13Z</time></trkpt><trkpt lat="45.7593583" lon="8.9682167"><ele>379.2857142857143</ele><time>2026-04-08T15:29:23.13Z</time></trkpt><trkpt lat="45.7594167" lon="8.9681717"><ele>379.7142857142857</ele><time>2026-04-08T15:29:25.13Z</time></trkpt><trkpt lat="45.7594933" lon="8.9681417"><ele>380.14285714285717</ele><time>2026-04-08T15:29:28.129Z</time></trkpt><trkpt lat="45.7595333" lon="8.9682167"><ele>380.57142857142856</ele><time>2026-04-08T15:29:31.129Z</time></trkpt><trkpt lat="45.7595683" lon="8.96834"><ele>381.0</ele><time>2026-04-08T15:29:34.129Z</time></trkpt><trkpt lat="45.7595517" lon="8.9684467"><ele>381.1428571428571</ele><time>2026-04-08T15:29:37.129Z</time></trkpt><trkpt lat="45.7594883" lon="8.96848"><ele>381.28571428571433</ele><time>2026-04-08T15:29:40.129Z</time></trkpt><trkpt lat="45.7594267" lon="8.968435"><ele>381.42857142857144</ele><time>2026-04-08T15:29:45.13Z</time></trkpt><trkpt lat="45.7594467" lon="8.9683033"><ele>381.57142857142856</ele><time>2026-04-08T15:29:47.13Z</time></trkpt><trkpt lat="45.7594133" lon="8.968385"><ele>381.71428571428567</ele><time>2026-04-08T15:30:17.129Z</time></trkpt><trkpt lat="45.7593517" lon="8.9684417"><ele>381.8571428571429</ele><time>2026-04-08T15:30:19.128Z</time></trkpt><trkpt lat="45.7593883" lon="8.9683467"><ele>382.0</ele><time>2026-04-08T15:30:31.127Z</time></trkpt><trkpt lat="45.7594133" lon="8.96843"><ele>382.0</ele><time>2026-04-08T15:30:37.128Z</time></trkpt></trkseg></trk></gpx>